<?xml version="1.0" encoding="UTF-8" standalone="no" ?>
<gpx xmlns="http://www.topografix.com/GPX/1/1" xmlns:xsi="http://www.w3.org/2001/XMLSchema-instance" xsi:schemaLocation="http://www.topografix.com/GPX/1/1 http://www.topografix.com/GPX/1/1/gpx.xsd" version="1.1" creator="VisuGPX - https://www.visugpx.com">
  <metadata>
    <name>sorties cad cité</name>
    <desc><![CDATA[Reconnaissance marche nordique]]></desc>
  </metadata>
  <wpt lat="43.6609" lon="5.71657">
    <ele>489.14</ele>
    <name><![CDATA[hair1]]></name>
    <desc><![CDATA[]]></desc>
    <type><![CDATA[Point de navigation]]></type>
  </wpt>
  <wpt lat="43.67161" lon="5.75456">
    <ele>383.44</ele>
    <name><![CDATA[panneaux solaires]]></name>
    <desc><![CDATA[]]></desc>
    <type><![CDATA[Point de navigation]]></type>
  </wpt>
  <trk>
    <name><![CDATA[prepa tour Maryelle 2016-11-30 12:02]]></name>
    <desc><![CDATA[<h1>OruxMaps</h1><br /><hr align="center" width="480" style="height: 2px; width: 517px"/><h2>Nom: prepa tour Maryelle 2016-11-30 12:02</h2><br /><p>Temps de départ: 11/30/2016 12:02</p><p>Temps d'arrivée: 12/02/2016 13:20</p><p>Distance: 26,8km (49:18)</p><p>Temps déplacement: 02:54</p><p>Vitesse moyenne: 0,5km/h</p><p>Vitesse moyenne: 9,2km/h</p><p>Vitess Max.: 13,4km/h</p><p>Altitude minimale: 174m</p><p>Altitude maximale: 493m</p><p>Vitesse d'élévation: 21m/h</p><p>Vitesse de descente: -737,2m/h</p><p>Gain Altitude: 1003m</p><p>Perte Altitude: -922m</p><p>Temps d'élévation: 47:40</p><p>Temps de descente: 01:15</p><hr align="center" width="480" style="height: 2px; width: 517px"/>]]></desc>
    <trkseg>
      <trkpt lat="43.69642" lon="5.73645">
        <ele>174.25</ele>
        <time>2016-11-30T11:02:10Z</time>
      </trkpt>
      <trkpt lat="43.69658" lon="5.73674">
        <ele>230.75</ele>
        <time>2016-11-30T11:02:11Z</time>
      </trkpt>
      <trkpt lat="43.69645" lon="5.73656">
        <ele>262.99</ele>
        <time>2016-11-30T11:03:10Z</time>
      </trkpt>
      <trkpt lat="43.69628" lon="5.73646">
        <ele>265.01</ele>
        <time>2016-11-30T11:03:18Z</time>
      </trkpt>
      <trkpt lat="43.69612" lon="5.73658">
        <ele>264.37</ele>
        <time>2016-11-30T11:03:25Z</time>
      </trkpt>
      <trkpt lat="43.69595" lon="5.73671">
        <ele>264.23</ele>
        <time>2016-11-30T11:03:33Z</time>
      </trkpt>
      <trkpt lat="43.69526" lon="5.73752">
        <ele>267.75</ele>
        <time>2016-11-30T11:04:11Z</time>
      </trkpt>
      <trkpt lat="43.69508" lon="5.73763">
        <ele>264.49</ele>
        <time>2016-11-30T11:04:20Z</time>
      </trkpt>
      <trkpt lat="43.69487" lon="5.7376">
        <ele>265.46</ele>
        <time>2016-11-30T11:04:29Z</time>
      </trkpt>
      <trkpt lat="43.69469" lon="5.73756">
        <ele>268.2</ele>
        <time>2016-11-30T11:04:37Z</time>
      </trkpt>
      <trkpt lat="43.69451" lon="5.73758">
        <ele>267.47</ele>
        <time>2016-11-30T11:04:44Z</time>
      </trkpt>
      <trkpt lat="43.69432" lon="5.73752">
        <ele>270.82</ele>
        <time>2016-11-30T11:04:52Z</time>
      </trkpt>
      <trkpt lat="43.69416" lon="5.73739">
        <ele>273.94</ele>
        <time>2016-11-30T11:05:01Z</time>
      </trkpt>
      <trkpt lat="43.694" lon="5.73727">
        <ele>271.91</ele>
        <time>2016-11-30T11:05:10Z</time>
      </trkpt>
      <trkpt lat="43.69381" lon="5.73724">
        <ele>272.97</ele>
        <time>2016-11-30T11:05:18Z</time>
      </trkpt>
      <trkpt lat="43.69362" lon="5.73725">
        <ele>273.7</ele>
        <time>2016-11-30T11:05:26Z</time>
      </trkpt>
      <trkpt lat="43.69346" lon="5.73712">
        <ele>279.22</ele>
        <time>2016-11-30T11:05:36Z</time>
      </trkpt>
      <trkpt lat="43.6933" lon="5.73696">
        <ele>281.78</ele>
        <time>2016-11-30T11:05:46Z</time>
      </trkpt>
      <trkpt lat="43.69318" lon="5.73675">
        <ele>278.48</ele>
        <time>2016-11-30T11:05:57Z</time>
      </trkpt>
      <trkpt lat="43.69302" lon="5.73664">
        <ele>281.44</ele>
        <time>2016-11-30T11:06:09Z</time>
      </trkpt>
      <trkpt lat="43.69281" lon="5.73656">
        <ele>283.07</ele>
        <time>2016-11-30T11:06:18Z</time>
      </trkpt>
      <trkpt lat="43.69263" lon="5.73647">
        <ele>284.78</ele>
        <time>2016-11-30T11:06:27Z</time>
      </trkpt>
      <trkpt lat="43.69245" lon="5.73642">
        <ele>290.98</ele>
        <time>2016-11-30T11:06:38Z</time>
      </trkpt>
      <trkpt lat="43.69226" lon="5.73648">
        <ele>293.35</ele>
        <time>2016-11-30T11:06:48Z</time>
      </trkpt>
      <trkpt lat="43.69208" lon="5.73646">
        <ele>298.99</ele>
        <time>2016-11-30T11:06:58Z</time>
      </trkpt>
      <trkpt lat="43.69193" lon="5.73632">
        <ele>301.48</ele>
        <time>2016-11-30T11:07:08Z</time>
      </trkpt>
      <trkpt lat="43.69174" lon="5.73621">
        <ele>301.3</ele>
        <time>2016-11-30T11:07:17Z</time>
      </trkpt>
      <trkpt lat="43.69155" lon="5.73618">
        <ele>306.62</ele>
        <time>2016-11-30T11:07:27Z</time>
      </trkpt>
      <trkpt lat="43.69137" lon="5.73607">
        <ele>305.33</ele>
        <time>2016-11-30T11:07:34Z</time>
      </trkpt>
      <trkpt lat="43.69119" lon="5.7361">
        <ele>302.77</ele>
        <time>2016-11-30T11:07:41Z</time>
      </trkpt>
      <trkpt lat="43.691" lon="5.73622">
        <ele>296.97</ele>
        <time>2016-11-30T11:07:48Z</time>
      </trkpt>
      <trkpt lat="43.6908" lon="5.73615">
        <ele>294.62</ele>
        <time>2016-11-30T11:07:56Z</time>
      </trkpt>
      <trkpt lat="43.69065" lon="5.73597">
        <ele>294.18</ele>
        <time>2016-11-30T11:08:03Z</time>
      </trkpt>
      <trkpt lat="43.69054" lon="5.73575">
        <ele>297.44</ele>
        <time>2016-11-30T11:08:11Z</time>
      </trkpt>
      <trkpt lat="43.69039" lon="5.73563">
        <ele>297.15</ele>
        <time>2016-11-30T11:08:21Z</time>
      </trkpt>
      <trkpt lat="43.69023" lon="5.7358">
        <ele>292.77</ele>
        <time>2016-11-30T11:08:28Z</time>
      </trkpt>
      <trkpt lat="43.69005" lon="5.73588">
        <ele>291.55</ele>
        <time>2016-11-30T11:08:35Z</time>
      </trkpt>
      <trkpt lat="43.68925" lon="5.73639">
        <ele>287.27</ele>
        <time>2016-11-30T11:09:11Z</time>
      </trkpt>
      <trkpt lat="43.68907" lon="5.73645">
        <ele>288.26</ele>
        <time>2016-11-30T11:09:18Z</time>
      </trkpt>
      <trkpt lat="43.68888" lon="5.73642">
        <ele>291.89</ele>
        <time>2016-11-30T11:09:26Z</time>
      </trkpt>
      <trkpt lat="43.68872" lon="5.73631">
        <ele>299.55</ele>
        <time>2016-11-30T11:09:34Z</time>
      </trkpt>
      <trkpt lat="43.68853" lon="5.7362">
        <ele>300.99</ele>
        <time>2016-11-30T11:09:43Z</time>
      </trkpt>
      <trkpt lat="43.68838" lon="5.73605">
        <ele>303.78</ele>
        <time>2016-11-30T11:09:50Z</time>
      </trkpt>
      <trkpt lat="43.68824" lon="5.73584">
        <ele>304.12</ele>
        <time>2016-11-30T11:09:59Z</time>
      </trkpt>
      <trkpt lat="43.68806" lon="5.73572">
        <ele>304.49</ele>
        <time>2016-11-30T11:10:08Z</time>
      </trkpt>
      <trkpt lat="43.68789" lon="5.73581">
        <ele>302.48</ele>
        <time>2016-11-30T11:10:14Z</time>
      </trkpt>
      <trkpt lat="43.68771" lon="5.73583">
        <ele>300.46</ele>
        <time>2016-11-30T11:10:21Z</time>
      </trkpt>
      <trkpt lat="43.68751" lon="5.73589">
        <ele>301.5</ele>
        <time>2016-11-30T11:10:29Z</time>
      </trkpt>
      <trkpt lat="43.68731" lon="5.73594">
        <ele>301.32</ele>
        <time>2016-11-30T11:10:36Z</time>
      </trkpt>
      <trkpt lat="43.68712" lon="5.73599">
        <ele>300.35</ele>
        <time>2016-11-30T11:10:43Z</time>
      </trkpt>
      <trkpt lat="43.68694" lon="5.73604">
        <ele>300.95</ele>
        <time>2016-11-30T11:10:49Z</time>
      </trkpt>
      <trkpt lat="43.68677" lon="5.73593">
        <ele>304.69</ele>
        <time>2016-11-30T11:10:57Z</time>
      </trkpt>
      <trkpt lat="43.68664" lon="5.73574">
        <ele>304.48</ele>
        <time>2016-11-30T11:11:04Z</time>
      </trkpt>
      <trkpt lat="43.6865" lon="5.73553">
        <ele>304.25</ele>
        <time>2016-11-30T11:11:12Z</time>
      </trkpt>
      <trkpt lat="43.68636" lon="5.73535">
        <ele>305.43</ele>
        <time>2016-11-30T11:11:19Z</time>
      </trkpt>
      <trkpt lat="43.68624" lon="5.73515">
        <ele>306.5</ele>
        <time>2016-11-30T11:11:27Z</time>
      </trkpt>
      <trkpt lat="43.68611" lon="5.73494">
        <ele>307.64</ele>
        <time>2016-11-30T11:11:34Z</time>
      </trkpt>
      <trkpt lat="43.686" lon="5.73473">
        <ele>311.57</ele>
        <time>2016-11-30T11:11:42Z</time>
      </trkpt>
      <trkpt lat="43.6859" lon="5.73448">
        <ele>312.76</ele>
        <time>2016-11-30T11:11:51Z</time>
      </trkpt>
      <trkpt lat="43.68576" lon="5.73432">
        <ele>314.37</ele>
        <time>2016-11-30T11:11:58Z</time>
      </trkpt>
      <trkpt lat="43.68562" lon="5.73416">
        <ele>317.6</ele>
        <time>2016-11-30T11:12:05Z</time>
      </trkpt>
      <trkpt lat="43.68545" lon="5.73402">
        <ele>312.5</ele>
        <time>2016-11-30T11:12:12Z</time>
      </trkpt>
      <trkpt lat="43.68528" lon="5.73385">
        <ele>311.71</ele>
        <time>2016-11-30T11:12:20Z</time>
      </trkpt>
      <trkpt lat="43.68515" lon="5.73365">
        <ele>312.72</ele>
        <time>2016-11-30T11:12:29Z</time>
      </trkpt>
      <trkpt lat="43.68502" lon="5.73345">
        <ele>314.42</ele>
        <time>2016-11-30T11:12:37Z</time>
      </trkpt>
      <trkpt lat="43.68488" lon="5.73326">
        <ele>313.54</ele>
        <time>2016-11-30T11:12:44Z</time>
      </trkpt>
      <trkpt lat="43.68476" lon="5.73306">
        <ele>316.54</ele>
        <time>2016-11-30T11:12:51Z</time>
      </trkpt>
      <trkpt lat="43.68459" lon="5.73293">
        <ele>315.35</ele>
        <time>2016-11-30T11:13:00Z</time>
      </trkpt>
      <trkpt lat="43.68442" lon="5.73277">
        <ele>316.75</ele>
        <time>2016-11-30T11:13:08Z</time>
      </trkpt>
      <trkpt lat="43.68427" lon="5.73262">
        <ele>315.72</ele>
        <time>2016-11-30T11:13:16Z</time>
      </trkpt>
      <trkpt lat="43.68411" lon="5.73243">
        <ele>316.42</ele>
        <time>2016-11-30T11:13:24Z</time>
      </trkpt>
      <trkpt lat="43.68393" lon="5.73248">
        <ele>318.37</ele>
        <time>2016-11-30T11:13:32Z</time>
      </trkpt>
      <trkpt lat="43.6829" lon="5.73258">
        <ele>310.68</ele>
        <time>2016-11-30T11:14:11Z</time>
      </trkpt>
      <trkpt lat="43.68272" lon="5.73268">
        <ele>318.65</ele>
        <time>2016-11-30T11:14:20Z</time>
      </trkpt>
      <trkpt lat="43.68253" lon="5.73271">
        <ele>320.81</ele>
        <time>2016-11-30T11:14:27Z</time>
      </trkpt>
      <trkpt lat="43.68233" lon="5.73279">
        <ele>316.84</ele>
        <time>2016-11-30T11:14:35Z</time>
      </trkpt>
      <trkpt lat="43.68215" lon="5.73285">
        <ele>315.28</ele>
        <time>2016-11-30T11:14:43Z</time>
      </trkpt>
      <trkpt lat="43.68195" lon="5.73288">
        <ele>314.13</ele>
        <time>2016-11-30T11:14:50Z</time>
      </trkpt>
      <trkpt lat="43.68178" lon="5.73299">
        <ele>314.88</ele>
        <time>2016-11-30T11:15:00Z</time>
      </trkpt>
      <trkpt lat="43.68159" lon="5.73297">
        <ele>311.38</ele>
        <time>2016-11-30T11:15:10Z</time>
      </trkpt>
      <trkpt lat="43.68138" lon="5.73288">
        <ele>312.64</ele>
        <time>2016-11-30T11:15:19Z</time>
      </trkpt>
      <trkpt lat="43.68119" lon="5.73285">
        <ele>313.73</ele>
        <time>2016-11-30T11:15:26Z</time>
      </trkpt>
      <trkpt lat="43.68099" lon="5.73291">
        <ele>310.66</ele>
        <time>2016-11-30T11:15:34Z</time>
      </trkpt>
      <trkpt lat="43.6808" lon="5.73289">
        <ele>312.91</ele>
        <time>2016-11-30T11:15:42Z</time>
      </trkpt>
      <trkpt lat="43.68062" lon="5.73283">
        <ele>310.79</ele>
        <time>2016-11-30T11:15:49Z</time>
      </trkpt>
      <trkpt lat="43.68045" lon="5.73275">
        <ele>309.42</ele>
        <time>2016-11-30T11:15:56Z</time>
      </trkpt>
      <trkpt lat="43.68026" lon="5.73271">
        <ele>311.1</ele>
        <time>2016-11-30T11:16:04Z</time>
      </trkpt>
      <trkpt lat="43.68008" lon="5.73282">
        <ele>309.73</ele>
        <time>2016-11-30T11:16:12Z</time>
      </trkpt>
      <trkpt lat="43.6799" lon="5.7329">
        <ele>314.13</ele>
        <time>2016-11-30T11:16:21Z</time>
      </trkpt>
      <trkpt lat="43.6797" lon="5.73295">
        <ele>312.65</ele>
        <time>2016-11-30T11:16:29Z</time>
      </trkpt>
      <trkpt lat="43.67952" lon="5.733">
        <ele>312.55</ele>
        <time>2016-11-30T11:16:36Z</time>
      </trkpt>
      <trkpt lat="43.67935" lon="5.73314">
        <ele>312.46</ele>
        <time>2016-11-30T11:16:44Z</time>
      </trkpt>
      <trkpt lat="43.67919" lon="5.73332">
        <ele>312.95</ele>
        <time>2016-11-30T11:16:52Z</time>
      </trkpt>
      <trkpt lat="43.67908" lon="5.73353">
        <ele>311.01</ele>
        <time>2016-11-30T11:17:00Z</time>
      </trkpt>
      <trkpt lat="43.67889" lon="5.73358">
        <ele>301.92</ele>
        <time>2016-11-30T11:17:12Z</time>
      </trkpt>
      <trkpt lat="43.67871" lon="5.73364">
        <ele>300.49</ele>
        <time>2016-11-30T11:17:19Z</time>
      </trkpt>
      <trkpt lat="43.67856" lon="5.7338">
        <ele>297.03</ele>
        <time>2016-11-30T11:17:28Z</time>
      </trkpt>
      <trkpt lat="43.67837" lon="5.73386">
        <ele>299.47</ele>
        <time>2016-11-30T11:17:35Z</time>
      </trkpt>
      <trkpt lat="43.67818" lon="5.73376">
        <ele>297.84</ele>
        <time>2016-11-30T11:17:42Z</time>
      </trkpt>
      <trkpt lat="43.67799" lon="5.73373">
        <ele>300.65</ele>
        <time>2016-11-30T11:17:51Z</time>
      </trkpt>
      <trkpt lat="43.6779" lon="5.73351">
        <ele>300.26</ele>
        <time>2016-11-30T11:18:00Z</time>
      </trkpt>
      <trkpt lat="43.6779" lon="5.73323">
        <ele>297.19</ele>
        <time>2016-11-30T11:18:07Z</time>
      </trkpt>
      <trkpt lat="43.67788" lon="5.73298">
        <ele>295.4</ele>
        <time>2016-11-30T11:18:13Z</time>
      </trkpt>
      <trkpt lat="43.67785" lon="5.73274">
        <ele>292.33</ele>
        <time>2016-11-30T11:18:20Z</time>
      </trkpt>
      <trkpt lat="43.67777" lon="5.73249">
        <ele>290.6</ele>
        <time>2016-11-30T11:18:27Z</time>
      </trkpt>
      <trkpt lat="43.67772" lon="5.73223">
        <ele>287.41</ele>
        <time>2016-11-30T11:18:34Z</time>
      </trkpt>
      <trkpt lat="43.67781" lon="5.73079">
        <ele>276.17</ele>
        <time>2016-11-30T11:19:11Z</time>
      </trkpt>
      <trkpt lat="43.67778" lon="5.73054">
        <ele>283.91</ele>
        <time>2016-11-30T11:19:18Z</time>
      </trkpt>
      <trkpt lat="43.6778" lon="5.73028">
        <ele>281.73</ele>
        <time>2016-11-30T11:19:26Z</time>
      </trkpt>
      <trkpt lat="43.67789" lon="5.73003">
        <ele>278.82</ele>
        <time>2016-11-30T11:19:33Z</time>
      </trkpt>
      <trkpt lat="43.67787" lon="5.72977">
        <ele>276.06</ele>
        <time>2016-11-30T11:19:40Z</time>
      </trkpt>
      <trkpt lat="43.67778" lon="5.72952">
        <ele>273.49</ele>
        <time>2016-11-30T11:19:47Z</time>
      </trkpt>
      <trkpt lat="43.67768" lon="5.72927">
        <ele>270.61</ele>
        <time>2016-11-30T11:19:54Z</time>
      </trkpt>
      <trkpt lat="43.67758" lon="5.72906">
        <ele>270.24</ele>
        <time>2016-11-30T11:20:01Z</time>
      </trkpt>
      <trkpt lat="43.67748" lon="5.72884">
        <ele>266.11</ele>
        <time>2016-11-30T11:20:07Z</time>
      </trkpt>
      <trkpt lat="43.67731" lon="5.72867">
        <ele>264.89</ele>
        <time>2016-11-30T11:20:14Z</time>
      </trkpt>
      <trkpt lat="43.6772" lon="5.72848">
        <ele>266.49</ele>
        <time>2016-11-30T11:20:20Z</time>
      </trkpt>
      <trkpt lat="43.67717" lon="5.72823">
        <ele>268.74</ele>
        <time>2016-11-30T11:20:27Z</time>
      </trkpt>
      <trkpt lat="43.67705" lon="5.72804">
        <ele>271.53</ele>
        <time>2016-11-30T11:20:33Z</time>
      </trkpt>
      <trkpt lat="43.6769" lon="5.72785">
        <ele>270.8</ele>
        <time>2016-11-30T11:20:40Z</time>
      </trkpt>
      <trkpt lat="43.67675" lon="5.72764">
        <ele>272.2</ele>
        <time>2016-11-30T11:20:47Z</time>
      </trkpt>
      <trkpt lat="43.67662" lon="5.72744">
        <ele>271.52</ele>
        <time>2016-11-30T11:20:54Z</time>
      </trkpt>
      <trkpt lat="43.67647" lon="5.72724">
        <ele>270.65</ele>
        <time>2016-11-30T11:21:02Z</time>
      </trkpt>
      <trkpt lat="43.67635" lon="5.72703">
        <ele>268.35</ele>
        <time>2016-11-30T11:21:10Z</time>
      </trkpt>
      <trkpt lat="43.67633" lon="5.72677">
        <ele>269.17</ele>
        <time>2016-11-30T11:21:17Z</time>
      </trkpt>
      <trkpt lat="43.67629" lon="5.72652">
        <ele>272.79</ele>
        <time>2016-11-30T11:21:23Z</time>
      </trkpt>
      <trkpt lat="43.67611" lon="5.72645">
        <ele>270.94</ele>
        <time>2016-11-30T11:21:33Z</time>
      </trkpt>
      <trkpt lat="43.67593" lon="5.72656">
        <ele>271.64</ele>
        <time>2016-11-30T11:21:40Z</time>
      </trkpt>
      <trkpt lat="43.67575" lon="5.72664">
        <ele>273.7</ele>
        <time>2016-11-30T11:21:48Z</time>
      </trkpt>
      <trkpt lat="43.67562" lon="5.72683">
        <ele>274.19</ele>
        <time>2016-11-30T11:21:55Z</time>
      </trkpt>
      <trkpt lat="43.67552" lon="5.72706">
        <ele>274.61</ele>
        <time>2016-11-30T11:22:02Z</time>
      </trkpt>
      <trkpt lat="43.67535" lon="5.72717">
        <ele>274.93</ele>
        <time>2016-11-30T11:22:10Z</time>
      </trkpt>
      <trkpt lat="43.67519" lon="5.72729">
        <ele>276.3</ele>
        <time>2016-11-30T11:22:18Z</time>
      </trkpt>
      <trkpt lat="43.67501" lon="5.72735">
        <ele>280.9</ele>
        <time>2016-11-30T11:22:27Z</time>
      </trkpt>
      <trkpt lat="43.67484" lon="5.72745">
        <ele>281.24</ele>
        <time>2016-11-30T11:22:35Z</time>
      </trkpt>
      <trkpt lat="43.67469" lon="5.72762">
        <ele>279.61</ele>
        <time>2016-11-30T11:22:43Z</time>
      </trkpt>
      <trkpt lat="43.67454" lon="5.72776">
        <ele>281.15</ele>
        <time>2016-11-30T11:22:52Z</time>
      </trkpt>
      <trkpt lat="43.67434" lon="5.72769">
        <ele>281.25</ele>
        <time>2016-11-30T11:23:00Z</time>
      </trkpt>
      <trkpt lat="43.67416" lon="5.72758">
        <ele>285.95</ele>
        <time>2016-11-30T11:23:08Z</time>
      </trkpt>
      <trkpt lat="43.67398" lon="5.72749">
        <ele>288.38</ele>
        <time>2016-11-30T11:23:16Z</time>
      </trkpt>
      <trkpt lat="43.67378" lon="5.72752">
        <ele>286.45</ele>
        <time>2016-11-30T11:23:24Z</time>
      </trkpt>
      <trkpt lat="43.67361" lon="5.7276">
        <ele>285.35</ele>
        <time>2016-11-30T11:23:32Z</time>
      </trkpt>
      <trkpt lat="43.6729" lon="5.72747">
        <ele>291.46</ele>
        <time>2016-11-30T11:24:11Z</time>
      </trkpt>
      <trkpt lat="43.67281" lon="5.72724">
        <ele>288.77</ele>
        <time>2016-11-30T11:25:44Z</time>
      </trkpt>
      <trkpt lat="43.67269" lon="5.72703">
        <ele>285.45</ele>
        <time>2016-11-30T11:25:53Z</time>
      </trkpt>
      <trkpt lat="43.6725" lon="5.72704">
        <ele>287.06</ele>
        <time>2016-11-30T11:26:00Z</time>
      </trkpt>
      <trkpt lat="43.67232" lon="5.72699">
        <ele>290.72</ele>
        <time>2016-11-30T11:26:08Z</time>
      </trkpt>
      <trkpt lat="43.67212" lon="5.72701">
        <ele>296.13</ele>
        <time>2016-11-30T11:26:16Z</time>
      </trkpt>
      <trkpt lat="43.67193" lon="5.72697">
        <ele>295.91</ele>
        <time>2016-11-30T11:26:24Z</time>
      </trkpt>
      <trkpt lat="43.67174" lon="5.72686">
        <ele>296.42</ele>
        <time>2016-11-30T11:26:32Z</time>
      </trkpt>
      <trkpt lat="43.67159" lon="5.72671">
        <ele>293.56</ele>
        <time>2016-11-30T11:26:40Z</time>
      </trkpt>
      <trkpt lat="43.67148" lon="5.72648">
        <ele>297.13</ele>
        <time>2016-11-30T11:26:49Z</time>
      </trkpt>
      <trkpt lat="43.67138" lon="5.72624">
        <ele>297.26</ele>
        <time>2016-11-30T11:26:57Z</time>
      </trkpt>
      <trkpt lat="43.67127" lon="5.72603">
        <ele>298.75</ele>
        <time>2016-11-30T11:27:04Z</time>
      </trkpt>
      <trkpt lat="43.67119" lon="5.72579">
        <ele>298.15</ele>
        <time>2016-11-30T11:27:12Z</time>
      </trkpt>
      <trkpt lat="43.67119" lon="5.72553">
        <ele>294.26</ele>
        <time>2016-11-30T11:27:22Z</time>
      </trkpt>
      <trkpt lat="43.67122" lon="5.72527">
        <ele>295.12</ele>
        <time>2016-11-30T11:27:31Z</time>
      </trkpt>
      <trkpt lat="43.67132" lon="5.72505">
        <ele>300.09</ele>
        <time>2016-11-30T11:27:39Z</time>
      </trkpt>
      <trkpt lat="43.67124" lon="5.72479">
        <ele>303.2</ele>
        <time>2016-11-30T11:27:47Z</time>
      </trkpt>
      <trkpt lat="43.67112" lon="5.72459">
        <ele>308.59</ele>
        <time>2016-11-30T11:27:55Z</time>
      </trkpt>
      <trkpt lat="43.67098" lon="5.72442">
        <ele>308.65</ele>
        <time>2016-11-30T11:28:02Z</time>
      </trkpt>
      <trkpt lat="43.67101" lon="5.72415">
        <ele>304.88</ele>
        <time>2016-11-30T11:28:12Z</time>
      </trkpt>
      <trkpt lat="43.67111" lon="5.7239">
        <ele>304.88</ele>
        <time>2016-11-30T11:28:20Z</time>
      </trkpt>
      <trkpt lat="43.67118" lon="5.72366">
        <ele>307.6</ele>
        <time>2016-11-30T11:28:28Z</time>
      </trkpt>
      <trkpt lat="43.67112" lon="5.72339">
        <ele>311.66</ele>
        <time>2016-11-30T11:28:37Z</time>
      </trkpt>
      <trkpt lat="43.67102" lon="5.72318">
        <ele>314.46</ele>
        <time>2016-11-30T11:28:45Z</time>
      </trkpt>
      <trkpt lat="43.67095" lon="5.72292">
        <ele>315.3</ele>
        <time>2016-11-30T11:28:53Z</time>
      </trkpt>
      <trkpt lat="43.67092" lon="5.72267">
        <ele>312.09</ele>
        <time>2016-11-30T11:29:02Z</time>
      </trkpt>
      <trkpt lat="43.67132" lon="5.72172">
        <ele>324.6</ele>
        <time>2016-11-30T11:29:42Z</time>
      </trkpt>
      <trkpt lat="43.67137" lon="5.72148">
        <ele>328.73</ele>
        <time>2016-11-30T11:29:49Z</time>
      </trkpt>
      <trkpt lat="43.6713" lon="5.72124">
        <ele>333.33</ele>
        <time>2016-11-30T11:30:11Z</time>
      </trkpt>
      <trkpt lat="43.67133" lon="5.72098">
        <ele>331.6</ele>
        <time>2016-11-30T11:30:19Z</time>
      </trkpt>
      <trkpt lat="43.67125" lon="5.72073">
        <ele>332.28</ele>
        <time>2016-11-30T11:30:29Z</time>
      </trkpt>
      <trkpt lat="43.67114" lon="5.7205">
        <ele>337.13</ele>
        <time>2016-11-30T11:30:38Z</time>
      </trkpt>
      <trkpt lat="43.67116" lon="5.72025">
        <ele>335.36</ele>
        <time>2016-11-30T11:30:47Z</time>
      </trkpt>
      <trkpt lat="43.67117" lon="5.71999">
        <ele>332.73</ele>
        <time>2016-11-30T11:30:57Z</time>
      </trkpt>
      <trkpt lat="43.67116" lon="5.71973">
        <ele>334.75</ele>
        <time>2016-11-30T11:31:07Z</time>
      </trkpt>
      <trkpt lat="43.67102" lon="5.71958">
        <ele>340.21</ele>
        <time>2016-11-30T11:31:18Z</time>
      </trkpt>
      <trkpt lat="43.67096" lon="5.71934">
        <ele>344.31</ele>
        <time>2016-11-30T11:31:33Z</time>
      </trkpt>
      <trkpt lat="43.6708" lon="5.71921">
        <ele>343.97</ele>
        <time>2016-11-30T11:31:51Z</time>
      </trkpt>
      <trkpt lat="43.67062" lon="5.71926">
        <ele>347.86</ele>
        <time>2016-11-30T11:32:07Z</time>
      </trkpt>
      <trkpt lat="43.67041" lon="5.71927">
        <ele>352.11</ele>
        <time>2016-11-30T11:32:29Z</time>
      </trkpt>
      <trkpt lat="43.67023" lon="5.7192">
        <ele>358.95</ele>
        <time>2016-11-30T11:32:38Z</time>
      </trkpt>
      <trkpt lat="43.67005" lon="5.71913">
        <ele>361.1</ele>
        <time>2016-11-30T11:32:45Z</time>
      </trkpt>
      <trkpt lat="43.66988" lon="5.71902">
        <ele>368.96</ele>
        <time>2016-11-30T11:32:53Z</time>
      </trkpt>
      <trkpt lat="43.6697" lon="5.71895">
        <ele>376.51</ele>
        <time>2016-11-30T11:33:01Z</time>
      </trkpt>
      <trkpt lat="43.66962" lon="5.71872">
        <ele>375.76</ele>
        <time>2016-11-30T11:33:10Z</time>
      </trkpt>
      <trkpt lat="43.66954" lon="5.71849">
        <ele>378.01</ele>
        <time>2016-11-30T11:33:18Z</time>
      </trkpt>
      <trkpt lat="43.6694" lon="5.71831">
        <ele>374.55</ele>
        <time>2016-11-30T11:33:26Z</time>
      </trkpt>
      <trkpt lat="43.66925" lon="5.71817">
        <ele>373.67</ele>
        <time>2016-11-30T11:33:33Z</time>
      </trkpt>
      <trkpt lat="43.66908" lon="5.71802">
        <ele>372.45</ele>
        <time>2016-11-30T11:33:43Z</time>
      </trkpt>
      <trkpt lat="43.66889" lon="5.71788">
        <ele>375.75</ele>
        <time>2016-11-30T11:33:53Z</time>
      </trkpt>
      <trkpt lat="43.66874" lon="5.71771">
        <ele>377.11</ele>
        <time>2016-11-30T11:34:02Z</time>
      </trkpt>
      <trkpt lat="43.66825" lon="5.7169">
        <ele>379.35</ele>
        <time>2016-11-30T11:34:55Z</time>
      </trkpt>
      <trkpt lat="43.66831" lon="5.71666">
        <ele>391.13</ele>
        <time>2016-11-30T11:35:06Z</time>
      </trkpt>
      <trkpt lat="43.66815" lon="5.71649">
        <ele>392.18</ele>
        <time>2016-11-30T11:35:19Z</time>
      </trkpt>
      <trkpt lat="43.66798" lon="5.71635">
        <ele>390.07</ele>
        <time>2016-11-30T11:35:28Z</time>
      </trkpt>
      <trkpt lat="43.66785" lon="5.71613">
        <ele>391.18</ele>
        <time>2016-11-30T11:35:36Z</time>
      </trkpt>
      <trkpt lat="43.66767" lon="5.71609">
        <ele>395.18</ele>
        <time>2016-11-30T11:35:50Z</time>
      </trkpt>
      <trkpt lat="43.66752" lon="5.71591">
        <ele>396.68</ele>
        <time>2016-11-30T11:35:57Z</time>
      </trkpt>
      <trkpt lat="43.6674" lon="5.71569">
        <ele>395.77</ele>
        <time>2016-11-30T11:36:05Z</time>
      </trkpt>
      <trkpt lat="43.66729" lon="5.71549">
        <ele>398.77</ele>
        <time>2016-11-30T11:36:15Z</time>
      </trkpt>
      <trkpt lat="43.66713" lon="5.71532">
        <ele>406.95</ele>
        <time>2016-11-30T11:36:25Z</time>
      </trkpt>
      <trkpt lat="43.66704" lon="5.7151">
        <ele>408.02</ele>
        <time>2016-11-30T11:36:34Z</time>
      </trkpt>
      <trkpt lat="43.66701" lon="5.71486">
        <ele>410.21</ele>
        <time>2016-11-30T11:36:42Z</time>
      </trkpt>
      <trkpt lat="43.66691" lon="5.71463">
        <ele>412.74</ele>
        <time>2016-11-30T11:36:56Z</time>
      </trkpt>
      <trkpt lat="43.66683" lon="5.7144">
        <ele>416.61</ele>
        <time>2016-11-30T11:37:09Z</time>
      </trkpt>
      <trkpt lat="43.66667" lon="5.71424">
        <ele>416.77</ele>
        <time>2016-11-30T11:37:18Z</time>
      </trkpt>
      <trkpt lat="43.66651" lon="5.71414">
        <ele>417.61</ele>
        <time>2016-11-30T11:37:27Z</time>
      </trkpt>
      <trkpt lat="43.66633" lon="5.71408">
        <ele>416.7</ele>
        <time>2016-11-30T11:37:35Z</time>
      </trkpt>
      <trkpt lat="43.66613" lon="5.71404">
        <ele>422.74</ele>
        <time>2016-11-30T11:37:43Z</time>
      </trkpt>
      <trkpt lat="43.66594" lon="5.71407">
        <ele>424.94</ele>
        <time>2016-11-30T11:37:52Z</time>
      </trkpt>
      <trkpt lat="43.66576" lon="5.71404">
        <ele>424.79</ele>
        <time>2016-11-30T11:38:02Z</time>
      </trkpt>
      <trkpt lat="43.66557" lon="5.71398">
        <ele>429.52</ele>
        <time>2016-11-30T11:38:11Z</time>
      </trkpt>
      <trkpt lat="43.66542" lon="5.71383">
        <ele>429.19</ele>
        <time>2016-11-30T11:38:26Z</time>
      </trkpt>
      <trkpt lat="43.66539" lon="5.71358">
        <ele>430.94</ele>
        <time>2016-11-30T11:38:42Z</time>
      </trkpt>
      <trkpt lat="43.6655" lon="5.71337">
        <ele>431.79</ele>
        <time>2016-11-30T11:38:55Z</time>
      </trkpt>
      <trkpt lat="43.66569" lon="5.7133">
        <ele>435.09</ele>
        <time>2016-11-30T11:39:02Z</time>
      </trkpt>
      <trkpt lat="43.66589" lon="5.7132">
        <ele>436.96</ele>
        <time>2016-11-30T11:39:10Z</time>
      </trkpt>
      <trkpt lat="43.66654" lon="5.71291">
        <ele>448.67</ele>
        <time>2016-11-30T11:39:43Z</time>
      </trkpt>
      <trkpt lat="43.66671" lon="5.71273">
        <ele>445.49</ele>
        <time>2016-11-30T11:39:49Z</time>
      </trkpt>
      <trkpt lat="43.66689" lon="5.71265">
        <ele>444.98</ele>
        <time>2016-11-30T11:39:58Z</time>
      </trkpt>
      <trkpt lat="43.66703" lon="5.71249">
        <ele>447.49</ele>
        <time>2016-11-30T11:40:08Z</time>
      </trkpt>
      <trkpt lat="43.66701" lon="5.71224">
        <ele>452.68</ele>
        <time>2016-11-30T11:40:27Z</time>
      </trkpt>
      <trkpt lat="43.66682" lon="5.71229">
        <ele>447.56</ele>
        <time>2016-11-30T11:41:21Z</time>
      </trkpt>
      <trkpt lat="43.66663" lon="5.71231">
        <ele>444.56</ele>
        <time>2016-11-30T11:41:28Z</time>
      </trkpt>
      <trkpt lat="43.66643" lon="5.71229">
        <ele>446.15</ele>
        <time>2016-11-30T11:41:36Z</time>
      </trkpt>
      <trkpt lat="43.66625" lon="5.71222">
        <ele>446.87</ele>
        <time>2016-11-30T11:41:44Z</time>
      </trkpt>
      <trkpt lat="43.66607" lon="5.71214">
        <ele>448.96</ele>
        <time>2016-11-30T11:41:52Z</time>
      </trkpt>
      <trkpt lat="43.66589" lon="5.71207">
        <ele>447.48</ele>
        <time>2016-11-30T11:42:00Z</time>
      </trkpt>
      <trkpt lat="43.6657" lon="5.71208">
        <ele>449.44</ele>
        <time>2016-11-30T11:42:08Z</time>
      </trkpt>
      <trkpt lat="43.6655" lon="5.71209">
        <ele>451.87</ele>
        <time>2016-11-30T11:42:16Z</time>
      </trkpt>
      <trkpt lat="43.66531" lon="5.71207">
        <ele>454.68</ele>
        <time>2016-11-30T11:42:25Z</time>
      </trkpt>
      <trkpt lat="43.66513" lon="5.71207">
        <ele>456.21</ele>
        <time>2016-11-30T11:42:33Z</time>
      </trkpt>
      <trkpt lat="43.66494" lon="5.71207">
        <ele>458.45</ele>
        <time>2016-11-30T11:42:43Z</time>
      </trkpt>
      <trkpt lat="43.66478" lon="5.71195">
        <ele>461.01</ele>
        <time>2016-11-30T11:42:52Z</time>
      </trkpt>
      <trkpt lat="43.66459" lon="5.71193">
        <ele>459.65</ele>
        <time>2016-11-30T11:43:01Z</time>
      </trkpt>
      <trkpt lat="43.66441" lon="5.71203">
        <ele>462.76</ele>
        <time>2016-11-30T11:43:10Z</time>
      </trkpt>
      <trkpt lat="43.66426" lon="5.71218">
        <ele>462.75</ele>
        <time>2016-11-30T11:43:18Z</time>
      </trkpt>
      <trkpt lat="43.6641" lon="5.71234">
        <ele>463.76</ele>
        <time>2016-11-30T11:43:27Z</time>
      </trkpt>
      <trkpt lat="43.66393" lon="5.71245">
        <ele>460.32</ele>
        <time>2016-11-30T11:43:34Z</time>
      </trkpt>
      <trkpt lat="43.66376" lon="5.71255">
        <ele>462.11</ele>
        <time>2016-11-30T11:43:41Z</time>
      </trkpt>
      <trkpt lat="43.66357" lon="5.7126">
        <ele>460.62</ele>
        <time>2016-11-30T11:43:48Z</time>
      </trkpt>
      <trkpt lat="43.66338" lon="5.71266">
        <ele>461.93</ele>
        <time>2016-11-30T11:43:56Z</time>
      </trkpt>
      <trkpt lat="43.6632" lon="5.71277">
        <ele>463.13</ele>
        <time>2016-11-30T11:44:04Z</time>
      </trkpt>
      <trkpt lat="43.66305" lon="5.71295">
        <ele>465.17</ele>
        <time>2016-11-30T11:44:12Z</time>
      </trkpt>
      <trkpt lat="43.66293" lon="5.71315">
        <ele>464.93</ele>
        <time>2016-11-30T11:44:20Z</time>
      </trkpt>
      <trkpt lat="43.66279" lon="5.71334">
        <ele>465.07</ele>
        <time>2016-11-30T11:44:28Z</time>
      </trkpt>
      <trkpt lat="43.66269" lon="5.71357">
        <ele>465.6</ele>
        <time>2016-11-30T11:44:36Z</time>
      </trkpt>
      <trkpt lat="43.66259" lon="5.71381">
        <ele>465.21</ele>
        <time>2016-11-30T11:44:45Z</time>
      </trkpt>
      <trkpt lat="43.66248" lon="5.71405">
        <ele>467.34</ele>
        <time>2016-11-30T11:44:54Z</time>
      </trkpt>
      <trkpt lat="43.66237" lon="5.71426">
        <ele>470.86</ele>
        <time>2016-11-30T11:45:02Z</time>
      </trkpt>
      <trkpt lat="43.66225" lon="5.71446">
        <ele>471.33</ele>
        <time>2016-11-30T11:45:10Z</time>
      </trkpt>
      <trkpt lat="43.66211" lon="5.71464">
        <ele>475.59</ele>
        <time>2016-11-30T11:45:18Z</time>
      </trkpt>
      <trkpt lat="43.66199" lon="5.71485">
        <ele>475.33</ele>
        <time>2016-11-30T11:45:27Z</time>
      </trkpt>
      <trkpt lat="43.66188" lon="5.71508">
        <ele>476.97</ele>
        <time>2016-11-30T11:45:36Z</time>
      </trkpt>
      <trkpt lat="43.66177" lon="5.71528">
        <ele>479.21</ele>
        <time>2016-11-30T11:45:44Z</time>
      </trkpt>
      <trkpt lat="43.66166" lon="5.71547">
        <ele>481.21</ele>
        <time>2016-11-30T11:45:53Z</time>
      </trkpt>
      <trkpt lat="43.66151" lon="5.71566">
        <ele>483.23</ele>
        <time>2016-11-30T11:46:02Z</time>
      </trkpt>
      <trkpt lat="43.66134" lon="5.71583">
        <ele>483.25</ele>
        <time>2016-11-30T11:46:11Z</time>
      </trkpt>
      <trkpt lat="43.6612" lon="5.71601">
        <ele>484.24</ele>
        <time>2016-11-30T11:46:21Z</time>
      </trkpt>
      <trkpt lat="43.66109" lon="5.71624">
        <ele>486.21</ele>
        <time>2016-11-30T11:46:30Z</time>
      </trkpt>
      <trkpt lat="43.66097" lon="5.71644">
        <ele>486.56</ele>
        <time>2016-11-30T11:46:47Z</time>
      </trkpt>
      <trkpt lat="43.66082" lon="5.71659">
        <ele>488.5</ele>
        <time>2016-11-30T11:48:56Z</time>
      </trkpt>
      <trkpt lat="43.66061" lon="5.71656">
        <ele>488.44</ele>
        <time>2016-11-30T11:49:03Z</time>
      </trkpt>
      <trkpt lat="43.66039" lon="5.71658">
        <ele>489.01</ele>
        <time>2016-11-30T11:49:11Z</time>
      </trkpt>
      <trkpt lat="43.66018" lon="5.71659">
        <ele>487.72</ele>
        <time>2016-11-30T11:49:19Z</time>
      </trkpt>
      <trkpt lat="43.66" lon="5.7167">
        <ele>484.71</ele>
        <time>2016-11-30T11:49:27Z</time>
      </trkpt>
      <trkpt lat="43.65982" lon="5.71684">
        <ele>484.37</ele>
        <time>2016-11-30T11:49:35Z</time>
      </trkpt>
      <trkpt lat="43.65966" lon="5.71699">
        <ele>486.65</ele>
        <time>2016-11-30T11:49:42Z</time>
      </trkpt>
      <trkpt lat="43.65951" lon="5.71719">
        <ele>487.76</ele>
        <time>2016-11-30T11:49:49Z</time>
      </trkpt>
      <trkpt lat="43.65937" lon="5.71737">
        <ele>489.16</ele>
        <time>2016-11-30T11:49:56Z</time>
      </trkpt>
      <trkpt lat="43.65923" lon="5.71757">
        <ele>487.14</ele>
        <time>2016-11-30T11:50:04Z</time>
      </trkpt>
      <trkpt lat="43.65911" lon="5.71778">
        <ele>490.14</ele>
        <time>2016-11-30T11:50:11Z</time>
      </trkpt>
      <trkpt lat="43.65898" lon="5.71799">
        <ele>490.53</ele>
        <time>2016-11-30T11:50:20Z</time>
      </trkpt>
      <trkpt lat="43.65882" lon="5.71815">
        <ele>492.33</ele>
        <time>2016-11-30T11:50:27Z</time>
      </trkpt>
      <trkpt lat="43.65866" lon="5.71831">
        <ele>488.3</ele>
        <time>2016-11-30T11:50:35Z</time>
      </trkpt>
      <trkpt lat="43.65854" lon="5.71852">
        <ele>489.43</ele>
        <time>2016-11-30T11:50:42Z</time>
      </trkpt>
      <trkpt lat="43.65841" lon="5.71874">
        <ele>490.45</ele>
        <time>2016-11-30T11:50:49Z</time>
      </trkpt>
      <trkpt lat="43.65829" lon="5.71893">
        <ele>490.86</ele>
        <time>2016-11-30T11:50:56Z</time>
      </trkpt>
      <trkpt lat="43.65811" lon="5.71904">
        <ele>490.25</ele>
        <time>2016-11-30T11:51:04Z</time>
      </trkpt>
      <trkpt lat="43.65793" lon="5.7192">
        <ele>490.62</ele>
        <time>2016-11-30T11:51:11Z</time>
      </trkpt>
      <trkpt lat="43.65775" lon="5.71932">
        <ele>491.96</ele>
        <time>2016-11-30T11:51:19Z</time>
      </trkpt>
      <trkpt lat="43.65756" lon="5.71942">
        <ele>490.79</ele>
        <time>2016-11-30T11:51:27Z</time>
      </trkpt>
      <trkpt lat="43.65738" lon="5.71952">
        <ele>489.97</ele>
        <time>2016-11-30T11:51:34Z</time>
      </trkpt>
      <trkpt lat="43.65719" lon="5.71962">
        <ele>489.72</ele>
        <time>2016-11-30T11:51:41Z</time>
      </trkpt>
      <trkpt lat="43.65702" lon="5.71972">
        <ele>491.28</ele>
        <time>2016-11-30T11:51:48Z</time>
      </trkpt>
      <trkpt lat="43.65683" lon="5.71982">
        <ele>489.73</ele>
        <time>2016-11-30T11:51:56Z</time>
      </trkpt>
      <trkpt lat="43.65666" lon="5.71993">
        <ele>489.85</ele>
        <time>2016-11-30T11:52:03Z</time>
      </trkpt>
      <trkpt lat="43.65649" lon="5.72003">
        <ele>491.04</ele>
        <time>2016-11-30T11:52:09Z</time>
      </trkpt>
      <trkpt lat="43.65632" lon="5.72014">
        <ele>493.4</ele>
        <time>2016-11-30T11:52:16Z</time>
      </trkpt>
      <trkpt lat="43.65615" lon="5.72028">
        <ele>491.63</ele>
        <time>2016-11-30T11:52:24Z</time>
      </trkpt>
      <trkpt lat="43.65597" lon="5.7204">
        <ele>490.37</ele>
        <time>2016-11-30T11:52:32Z</time>
      </trkpt>
      <trkpt lat="43.65578" lon="5.7204">
        <ele>488.59</ele>
        <time>2016-11-30T11:52:39Z</time>
      </trkpt>
      <trkpt lat="43.65559" lon="5.72032">
        <ele>486.54</ele>
        <time>2016-11-30T11:52:47Z</time>
      </trkpt>
      <trkpt lat="43.65541" lon="5.72017">
        <ele>487.98</ele>
        <time>2016-11-30T11:52:55Z</time>
      </trkpt>
      <trkpt lat="43.65522" lon="5.72009">
        <ele>488.3</ele>
        <time>2016-11-30T11:53:03Z</time>
      </trkpt>
      <trkpt lat="43.65505" lon="5.71997">
        <ele>489.09</ele>
        <time>2016-11-30T11:53:11Z</time>
      </trkpt>
      <trkpt lat="43.65489" lon="5.71982">
        <ele>488.46</ele>
        <time>2016-11-30T11:53:18Z</time>
      </trkpt>
      <trkpt lat="43.65473" lon="5.71968">
        <ele>485.79</ele>
        <time>2016-11-30T11:53:26Z</time>
      </trkpt>
      <trkpt lat="43.65457" lon="5.71953">
        <ele>484.55</ele>
        <time>2016-11-30T11:53:33Z</time>
      </trkpt>
      <trkpt lat="43.65439" lon="5.71953">
        <ele>484.05</ele>
        <time>2016-11-30T11:53:51Z</time>
      </trkpt>
      <trkpt lat="43.65426" lon="5.71972">
        <ele>482.6</ele>
        <time>2016-11-30T11:54:03Z</time>
      </trkpt>
      <trkpt lat="43.65428" lon="5.71999">
        <ele>485.25</ele>
        <time>2016-11-30T11:55:17Z</time>
      </trkpt>
      <trkpt lat="43.65441" lon="5.72021">
        <ele>482.96</ele>
        <time>2016-11-30T11:55:24Z</time>
      </trkpt>
      <trkpt lat="43.65458" lon="5.72034">
        <ele>481</ele>
        <time>2016-11-30T11:55:31Z</time>
      </trkpt>
      <trkpt lat="43.6546" lon="5.7206">
        <ele>478.15</ele>
        <time>2016-11-30T11:55:41Z</time>
      </trkpt>
      <trkpt lat="43.65442" lon="5.72059">
        <ele>476.84</ele>
        <time>2016-11-30T11:55:47Z</time>
      </trkpt>
      <trkpt lat="43.65422" lon="5.72059">
        <ele>474.14</ele>
        <time>2016-11-30T11:55:55Z</time>
      </trkpt>
      <trkpt lat="43.65402" lon="5.7206">
        <ele>473.53</ele>
        <time>2016-11-30T11:56:01Z</time>
      </trkpt>
      <trkpt lat="43.65386" lon="5.72072">
        <ele>473.83</ele>
        <time>2016-11-30T11:56:08Z</time>
      </trkpt>
      <trkpt lat="43.65376" lon="5.72093">
        <ele>471.44</ele>
        <time>2016-11-30T11:56:15Z</time>
      </trkpt>
      <trkpt lat="43.65372" lon="5.7212">
        <ele>467.97</ele>
        <time>2016-11-30T11:56:22Z</time>
      </trkpt>
      <trkpt lat="43.65373" lon="5.72148">
        <ele>463.05</ele>
        <time>2016-11-30T11:56:29Z</time>
      </trkpt>
      <trkpt lat="43.65374" lon="5.72175">
        <ele>459.14</ele>
        <time>2016-11-30T11:56:36Z</time>
      </trkpt>
      <trkpt lat="43.65376" lon="5.72204">
        <ele>460.86</ele>
        <time>2016-11-30T11:56:44Z</time>
      </trkpt>
      <trkpt lat="43.65376" lon="5.72229">
        <ele>459.12</ele>
        <time>2016-11-30T11:56:50Z</time>
      </trkpt>
      <trkpt lat="43.65377" lon="5.72258">
        <ele>456.64</ele>
        <time>2016-11-30T11:56:58Z</time>
      </trkpt>
      <trkpt lat="43.65378" lon="5.72283">
        <ele>452.56</ele>
        <time>2016-11-30T11:57:05Z</time>
      </trkpt>
      <trkpt lat="43.65375" lon="5.72308">
        <ele>448.65</ele>
        <time>2016-11-30T11:57:12Z</time>
      </trkpt>
      <trkpt lat="43.65372" lon="5.72334">
        <ele>446.19</ele>
        <time>2016-11-30T11:57:19Z</time>
      </trkpt>
      <trkpt lat="43.65367" lon="5.72361">
        <ele>446.09</ele>
        <time>2016-11-30T11:57:27Z</time>
      </trkpt>
      <trkpt lat="43.6536" lon="5.72387">
        <ele>446.68</ele>
        <time>2016-11-30T11:57:35Z</time>
      </trkpt>
      <trkpt lat="43.65346" lon="5.72407">
        <ele>444.98</ele>
        <time>2016-11-30T11:57:42Z</time>
      </trkpt>
      <trkpt lat="43.65338" lon="5.72431">
        <ele>441.7</ele>
        <time>2016-11-30T11:57:49Z</time>
      </trkpt>
      <trkpt lat="43.65327" lon="5.72454">
        <ele>441.2</ele>
        <time>2016-11-30T11:57:57Z</time>
      </trkpt>
      <trkpt lat="43.65318" lon="5.72478">
        <ele>437.58</ele>
        <time>2016-11-30T11:58:04Z</time>
      </trkpt>
      <trkpt lat="43.65308" lon="5.72505">
        <ele>446.83</ele>
        <time>2016-11-30T11:58:12Z</time>
      </trkpt>
      <trkpt lat="43.65298" lon="5.72528">
        <ele>433.88</ele>
        <time>2016-11-30T11:58:20Z</time>
      </trkpt>
      <trkpt lat="43.65288" lon="5.72552">
        <ele>429.15</ele>
        <time>2016-11-30T11:58:28Z</time>
      </trkpt>
      <trkpt lat="43.65281" lon="5.72575">
        <ele>429.23</ele>
        <time>2016-11-30T11:58:34Z</time>
      </trkpt>
      <trkpt lat="43.6528" lon="5.72604">
        <ele>428.16</ele>
        <time>2016-11-30T11:58:41Z</time>
      </trkpt>
      <trkpt lat="43.65293" lon="5.72624">
        <ele>427.29</ele>
        <time>2016-11-30T11:58:47Z</time>
      </trkpt>
      <trkpt lat="43.65305" lon="5.72645">
        <ele>426.5</ele>
        <time>2016-11-30T11:58:54Z</time>
      </trkpt>
      <trkpt lat="43.65318" lon="5.72664">
        <ele>424.89</ele>
        <time>2016-11-30T11:59:01Z</time>
      </trkpt>
      <trkpt lat="43.65327" lon="5.72689">
        <ele>423.18</ele>
        <time>2016-11-30T11:59:08Z</time>
      </trkpt>
      <trkpt lat="43.65339" lon="5.72708">
        <ele>424.45</ele>
        <time>2016-11-30T11:59:14Z</time>
      </trkpt>
      <trkpt lat="43.65347" lon="5.7273">
        <ele>425.05</ele>
        <time>2016-11-30T11:59:20Z</time>
      </trkpt>
      <trkpt lat="43.65353" lon="5.72755">
        <ele>420.77</ele>
        <time>2016-11-30T11:59:27Z</time>
      </trkpt>
      <trkpt lat="43.65364" lon="5.7278">
        <ele>417.56</ele>
        <time>2016-11-30T11:59:35Z</time>
      </trkpt>
      <trkpt lat="43.65377" lon="5.728">
        <ele>414.34</ele>
        <time>2016-11-30T11:59:42Z</time>
      </trkpt>
      <trkpt lat="43.65387" lon="5.72822">
        <ele>413.35</ele>
        <time>2016-11-30T11:59:49Z</time>
      </trkpt>
      <trkpt lat="43.65395" lon="5.72844">
        <ele>412.16</ele>
        <time>2016-11-30T11:59:56Z</time>
      </trkpt>
      <trkpt lat="43.654" lon="5.72873">
        <ele>411.11</ele>
        <time>2016-11-30T12:00:03Z</time>
      </trkpt>
      <trkpt lat="43.65408" lon="5.72897">
        <ele>410.09</ele>
        <time>2016-11-30T12:00:11Z</time>
      </trkpt>
      <trkpt lat="43.6542" lon="5.72916">
        <ele>404.35</ele>
        <time>2016-11-30T12:00:20Z</time>
      </trkpt>
      <trkpt lat="43.65436" lon="5.72926">
        <ele>403.19</ele>
        <time>2016-11-30T12:00:28Z</time>
      </trkpt>
      <trkpt lat="43.6545" lon="5.72946">
        <ele>402.35</ele>
        <time>2016-11-30T12:00:37Z</time>
      </trkpt>
      <trkpt lat="43.65468" lon="5.7296">
        <ele>393.27</ele>
        <time>2016-11-30T12:00:46Z</time>
      </trkpt>
      <trkpt lat="43.65488" lon="5.72957">
        <ele>386.73</ele>
        <time>2016-11-30T12:00:54Z</time>
      </trkpt>
      <trkpt lat="43.65504" lon="5.72977">
        <ele>383.03</ele>
        <time>2016-11-30T12:01:01Z</time>
      </trkpt>
      <trkpt lat="43.65519" lon="5.7299">
        <ele>381.24</ele>
        <time>2016-11-30T12:01:08Z</time>
      </trkpt>
      <trkpt lat="43.65535" lon="5.73006">
        <ele>382.25</ele>
        <time>2016-11-30T12:01:36Z</time>
      </trkpt>
      <trkpt lat="43.65535" lon="5.73033">
        <ele>381.04</ele>
        <time>2016-11-30T12:01:44Z</time>
      </trkpt>
      <trkpt lat="43.65545" lon="5.73058">
        <ele>383.25</ele>
        <time>2016-11-30T12:02:57Z</time>
      </trkpt>
      <trkpt lat="43.65557" lon="5.73079">
        <ele>379.14</ele>
        <time>2016-11-30T12:03:04Z</time>
      </trkpt>
      <trkpt lat="43.65568" lon="5.73099">
        <ele>375.6</ele>
        <time>2016-11-30T12:03:11Z</time>
      </trkpt>
      <trkpt lat="43.65579" lon="5.73124">
        <ele>375.48</ele>
        <time>2016-11-30T12:03:18Z</time>
      </trkpt>
      <trkpt lat="43.65588" lon="5.73146">
        <ele>379.11</ele>
        <time>2016-11-30T12:03:27Z</time>
      </trkpt>
      <trkpt lat="43.65585" lon="5.73173">
        <ele>379.96</ele>
        <time>2016-11-30T12:03:34Z</time>
      </trkpt>
      <trkpt lat="43.65587" lon="5.73201">
        <ele>383.21</ele>
        <time>2016-11-30T12:03:42Z</time>
      </trkpt>
      <trkpt lat="43.6559" lon="5.73226">
        <ele>382.9</ele>
        <time>2016-11-30T12:03:48Z</time>
      </trkpt>
      <trkpt lat="43.656" lon="5.73249">
        <ele>382.77</ele>
        <time>2016-11-30T12:03:55Z</time>
      </trkpt>
      <trkpt lat="43.65608" lon="5.73274">
        <ele>381.01</ele>
        <time>2016-11-30T12:04:02Z</time>
      </trkpt>
      <trkpt lat="43.65623" lon="5.73288">
        <ele>377.73</ele>
        <time>2016-11-30T12:04:09Z</time>
      </trkpt>
      <trkpt lat="43.65638" lon="5.73303">
        <ele>374.15</ele>
        <time>2016-11-30T12:04:17Z</time>
      </trkpt>
      <trkpt lat="43.65657" lon="5.73308">
        <ele>375.3</ele>
        <time>2016-11-30T12:04:25Z</time>
      </trkpt>
      <trkpt lat="43.65677" lon="5.73311">
        <ele>374.89</ele>
        <time>2016-11-30T12:04:32Z</time>
      </trkpt>
      <trkpt lat="43.65697" lon="5.73315">
        <ele>373.54</ele>
        <time>2016-11-30T12:04:40Z</time>
      </trkpt>
      <trkpt lat="43.65715" lon="5.73316">
        <ele>375.02</ele>
        <time>2016-11-30T12:04:46Z</time>
      </trkpt>
      <trkpt lat="43.65731" lon="5.73332">
        <ele>375.69</ele>
        <time>2016-11-30T12:04:54Z</time>
      </trkpt>
      <trkpt lat="43.65744" lon="5.73356">
        <ele>369.22</ele>
        <time>2016-11-30T12:05:02Z</time>
      </trkpt>
      <trkpt lat="43.65762" lon="5.7337">
        <ele>370.41</ele>
        <time>2016-11-30T12:05:10Z</time>
      </trkpt>
      <trkpt lat="43.65772" lon="5.73391">
        <ele>367.83</ele>
        <time>2016-11-30T12:05:17Z</time>
      </trkpt>
      <trkpt lat="43.65789" lon="5.73402">
        <ele>370.2</ele>
        <time>2016-11-30T12:05:24Z</time>
      </trkpt>
      <trkpt lat="43.65807" lon="5.73413">
        <ele>370.63</ele>
        <time>2016-11-30T12:05:31Z</time>
      </trkpt>
      <trkpt lat="43.65822" lon="5.73429">
        <ele>369.35</ele>
        <time>2016-11-30T12:05:38Z</time>
      </trkpt>
      <trkpt lat="43.65837" lon="5.73442">
        <ele>362.59</ele>
        <time>2016-11-30T12:05:44Z</time>
      </trkpt>
      <trkpt lat="43.65854" lon="5.73455">
        <ele>363.96</ele>
        <time>2016-11-30T12:05:51Z</time>
      </trkpt>
      <trkpt lat="43.65869" lon="5.73471">
        <ele>362.21</ele>
        <time>2016-11-30T12:05:59Z</time>
      </trkpt>
      <trkpt lat="43.65885" lon="5.73484">
        <ele>355.94</ele>
        <time>2016-11-30T12:06:08Z</time>
      </trkpt>
      <trkpt lat="43.65903" lon="5.73496">
        <ele>345.31</ele>
        <time>2016-11-30T12:06:18Z</time>
      </trkpt>
      <trkpt lat="43.65914" lon="5.73518">
        <ele>342</ele>
        <time>2016-11-30T12:06:26Z</time>
      </trkpt>
      <trkpt lat="43.65931" lon="5.73531">
        <ele>341.37</ele>
        <time>2016-11-30T12:06:34Z</time>
      </trkpt>
      <trkpt lat="43.65949" lon="5.73541">
        <ele>334.23</ele>
        <time>2016-11-30T12:06:44Z</time>
      </trkpt>
      <trkpt lat="43.65965" lon="5.73551">
        <ele>330.66</ele>
        <time>2016-11-30T12:06:52Z</time>
      </trkpt>
      <trkpt lat="43.65983" lon="5.73561">
        <ele>329.79</ele>
        <time>2016-11-30T12:06:59Z</time>
      </trkpt>
      <trkpt lat="43.66" lon="5.73571">
        <ele>326.44</ele>
        <time>2016-11-30T12:07:08Z</time>
      </trkpt>
      <trkpt lat="43.66016" lon="5.73587">
        <ele>323.52</ele>
        <time>2016-11-30T12:07:15Z</time>
      </trkpt>
      <trkpt lat="43.6603" lon="5.73604">
        <ele>322.84</ele>
        <time>2016-11-30T12:07:22Z</time>
      </trkpt>
      <trkpt lat="43.66047" lon="5.73619">
        <ele>322.95</ele>
        <time>2016-11-30T12:07:29Z</time>
      </trkpt>
      <trkpt lat="43.66065" lon="5.73625">
        <ele>322.12</ele>
        <time>2016-11-30T12:07:36Z</time>
      </trkpt>
      <trkpt lat="43.66085" lon="5.73628">
        <ele>321.78</ele>
        <time>2016-11-30T12:07:43Z</time>
      </trkpt>
      <trkpt lat="43.66104" lon="5.73632">
        <ele>322.21</ele>
        <time>2016-11-30T12:07:52Z</time>
      </trkpt>
      <trkpt lat="43.66122" lon="5.73634">
        <ele>320.53</ele>
        <time>2016-11-30T12:08:01Z</time>
      </trkpt>
      <trkpt lat="43.6614" lon="5.73632">
        <ele>316.24</ele>
        <time>2016-11-30T12:08:09Z</time>
      </trkpt>
      <trkpt lat="43.66157" lon="5.7364">
        <ele>316.57</ele>
        <time>2016-11-30T12:08:17Z</time>
      </trkpt>
      <trkpt lat="43.66177" lon="5.7364">
        <ele>312.78</ele>
        <time>2016-11-30T12:08:25Z</time>
      </trkpt>
      <trkpt lat="43.66195" lon="5.73644">
        <ele>312.5</ele>
        <time>2016-11-30T12:08:32Z</time>
      </trkpt>
      <trkpt lat="43.66212" lon="5.73654">
        <ele>311.14</ele>
        <time>2016-11-30T12:08:40Z</time>
      </trkpt>
      <trkpt lat="43.66231" lon="5.73662">
        <ele>306.46</ele>
        <time>2016-11-30T12:08:49Z</time>
      </trkpt>
      <trkpt lat="43.66251" lon="5.73668">
        <ele>306.91</ele>
        <time>2016-11-30T12:08:57Z</time>
      </trkpt>
      <trkpt lat="43.6627" lon="5.73677">
        <ele>304.86</ele>
        <time>2016-11-30T12:09:05Z</time>
      </trkpt>
      <trkpt lat="43.66287" lon="5.73682">
        <ele>304.82</ele>
        <time>2016-11-30T12:09:11Z</time>
      </trkpt>
      <trkpt lat="43.66307" lon="5.73687">
        <ele>308.65</ele>
        <time>2016-11-30T12:09:18Z</time>
      </trkpt>
      <trkpt lat="43.66324" lon="5.73703">
        <ele>305.79</ele>
        <time>2016-11-30T12:09:26Z</time>
      </trkpt>
      <trkpt lat="43.66342" lon="5.7371">
        <ele>300.55</ele>
        <time>2016-11-30T12:09:33Z</time>
      </trkpt>
      <trkpt lat="43.66362" lon="5.73711">
        <ele>299.01</ele>
        <time>2016-11-30T12:09:40Z</time>
      </trkpt>
      <trkpt lat="43.6638" lon="5.7371">
        <ele>298.54</ele>
        <time>2016-11-30T12:09:46Z</time>
      </trkpt>
      <trkpt lat="43.66399" lon="5.73714">
        <ele>299.9</ele>
        <time>2016-11-30T12:09:53Z</time>
      </trkpt>
      <trkpt lat="43.6642" lon="5.7371">
        <ele>297.88</ele>
        <time>2016-11-30T12:10:00Z</time>
      </trkpt>
      <trkpt lat="43.6644" lon="5.73712">
        <ele>292.73</ele>
        <time>2016-11-30T12:10:07Z</time>
      </trkpt>
      <trkpt lat="43.66459" lon="5.73712">
        <ele>293.97</ele>
        <time>2016-11-30T12:10:14Z</time>
      </trkpt>
      <trkpt lat="43.66478" lon="5.73708">
        <ele>293.29</ele>
        <time>2016-11-30T12:10:21Z</time>
      </trkpt>
      <trkpt lat="43.66499" lon="5.73705">
        <ele>292.81</ele>
        <time>2016-11-30T12:10:28Z</time>
      </trkpt>
      <trkpt lat="43.6652" lon="5.73702">
        <ele>292.4</ele>
        <time>2016-11-30T12:10:36Z</time>
      </trkpt>
      <trkpt lat="43.66539" lon="5.73699">
        <ele>291.94</ele>
        <time>2016-11-30T12:10:42Z</time>
      </trkpt>
      <trkpt lat="43.66557" lon="5.73695">
        <ele>289.29</ele>
        <time>2016-11-30T12:10:50Z</time>
      </trkpt>
      <trkpt lat="43.66575" lon="5.73695">
        <ele>288.32</ele>
        <time>2016-11-30T12:10:57Z</time>
      </trkpt>
      <trkpt lat="43.66593" lon="5.73704">
        <ele>287.82</ele>
        <time>2016-11-30T12:11:04Z</time>
      </trkpt>
      <trkpt lat="43.66613" lon="5.73712">
        <ele>289.61</ele>
        <time>2016-11-30T12:11:11Z</time>
      </trkpt>
      <trkpt lat="43.66626" lon="5.7373">
        <ele>291.02</ele>
        <time>2016-11-30T12:11:18Z</time>
      </trkpt>
      <trkpt lat="43.6664" lon="5.73749">
        <ele>290.05</ele>
        <time>2016-11-30T12:11:26Z</time>
      </trkpt>
      <trkpt lat="43.66659" lon="5.73753">
        <ele>287.88</ele>
        <time>2016-11-30T12:11:34Z</time>
      </trkpt>
      <trkpt lat="43.66677" lon="5.7375">
        <ele>285.14</ele>
        <time>2016-11-30T12:11:46Z</time>
      </trkpt>
      <trkpt lat="43.66694" lon="5.73736">
        <ele>284.03</ele>
        <time>2016-11-30T12:12:09Z</time>
      </trkpt>
      <trkpt lat="43.66712" lon="5.73724">
        <ele>280.66</ele>
        <time>2016-11-30T12:12:16Z</time>
      </trkpt>
      <trkpt lat="43.66729" lon="5.73712">
        <ele>279.58</ele>
        <time>2016-11-30T12:12:23Z</time>
      </trkpt>
      <trkpt lat="43.66745" lon="5.73699">
        <ele>272.58</ele>
        <time>2016-11-30T12:12:31Z</time>
      </trkpt>
      <trkpt lat="43.66762" lon="5.73691">
        <ele>272.97</ele>
        <time>2016-11-30T12:12:38Z</time>
      </trkpt>
      <trkpt lat="43.66779" lon="5.73682">
        <ele>273.92</ele>
        <time>2016-11-30T12:12:42Z</time>
      </trkpt>
      <trkpt lat="43.66798" lon="5.73675">
        <ele>272.28</ele>
        <time>2016-11-30T12:12:50Z</time>
      </trkpt>
      <trkpt lat="43.66818" lon="5.73666">
        <ele>274.6</ele>
        <time>2016-11-30T12:12:57Z</time>
      </trkpt>
      <trkpt lat="43.66836" lon="5.73655">
        <ele>277.32</ele>
        <time>2016-11-30T12:13:04Z</time>
      </trkpt>
      <trkpt lat="43.66844" lon="5.73633">
        <ele>363.95</ele>
        <time>2016-11-30T12:13:13Z</time>
      </trkpt>
      <trkpt lat="43.66851" lon="5.7361">
        <ele>296.52</ele>
        <time>2016-11-30T12:13:22Z</time>
      </trkpt>
      <trkpt lat="43.66853" lon="5.73583">
        <ele>290.19</ele>
        <time>2016-11-30T12:13:30Z</time>
      </trkpt>
      <trkpt lat="43.66864" lon="5.73561">
        <ele>293.08</ele>
        <time>2016-11-30T12:13:38Z</time>
      </trkpt>
      <trkpt lat="43.66877" lon="5.73538">
        <ele>288.08</ele>
        <time>2016-11-30T12:13:46Z</time>
      </trkpt>
      <trkpt lat="43.66885" lon="5.73513">
        <ele>288.37</ele>
        <time>2016-11-30T12:13:55Z</time>
      </trkpt>
      <trkpt lat="43.66899" lon="5.73494">
        <ele>285.63</ele>
        <time>2016-11-30T12:14:03Z</time>
      </trkpt>
      <trkpt lat="43.66909" lon="5.73472">
        <ele>284.08</ele>
        <time>2016-11-30T12:14:10Z</time>
      </trkpt>
      <trkpt lat="43.66921" lon="5.73451">
        <ele>285.15</ele>
        <time>2016-11-30T12:14:17Z</time>
      </trkpt>
      <trkpt lat="43.66937" lon="5.73434">
        <ele>284.4</ele>
        <time>2016-11-30T12:14:24Z</time>
      </trkpt>
      <trkpt lat="43.66952" lon="5.73417">
        <ele>282.9</ele>
        <time>2016-11-30T12:14:32Z</time>
      </trkpt>
      <trkpt lat="43.66967" lon="5.734">
        <ele>284.44</ele>
        <time>2016-11-30T12:14:39Z</time>
      </trkpt>
      <trkpt lat="43.66979" lon="5.7338">
        <ele>284.25</ele>
        <time>2016-11-30T12:14:48Z</time>
      </trkpt>
      <trkpt lat="43.66983" lon="5.73356">
        <ele>290.33</ele>
        <time>2016-11-30T12:15:17Z</time>
      </trkpt>
      <trkpt lat="43.66992" lon="5.73334">
        <ele>287.5</ele>
        <time>2016-11-30T12:15:23Z</time>
      </trkpt>
      <trkpt lat="43.67007" lon="5.73314">
        <ele>287.65</ele>
        <time>2016-11-30T12:15:30Z</time>
      </trkpt>
      <trkpt lat="43.67021" lon="5.73295">
        <ele>291.09</ele>
        <time>2016-11-30T12:15:37Z</time>
      </trkpt>
      <trkpt lat="43.67038" lon="5.73277">
        <ele>289.93</ele>
        <time>2016-11-30T12:15:44Z</time>
      </trkpt>
      <trkpt lat="43.67051" lon="5.73255">
        <ele>287.58</ele>
        <time>2016-11-30T12:15:52Z</time>
      </trkpt>
      <trkpt lat="43.67062" lon="5.73234">
        <ele>283.43</ele>
        <time>2016-11-30T12:16:00Z</time>
      </trkpt>
      <trkpt lat="43.67081" lon="5.73219">
        <ele>285.82</ele>
        <time>2016-11-30T12:16:07Z</time>
      </trkpt>
      <trkpt lat="43.67096" lon="5.73202">
        <ele>288.62</ele>
        <time>2016-11-30T12:16:15Z</time>
      </trkpt>
      <trkpt lat="43.67113" lon="5.73187">
        <ele>283.46</ele>
        <time>2016-11-30T12:16:44Z</time>
      </trkpt>
      <trkpt lat="43.67131" lon="5.73178">
        <ele>284.08</ele>
        <time>2016-11-30T12:16:51Z</time>
      </trkpt>
      <trkpt lat="43.67138" lon="5.73154">
        <ele>278.74</ele>
        <time>2016-11-30T12:16:58Z</time>
      </trkpt>
      <trkpt lat="43.67148" lon="5.73133">
        <ele>279.73</ele>
        <time>2016-11-30T12:17:03Z</time>
      </trkpt>
      <trkpt lat="43.67155" lon="5.73108">
        <ele>278.98</ele>
        <time>2016-11-30T12:17:10Z</time>
      </trkpt>
      <trkpt lat="43.67165" lon="5.73086">
        <ele>279.4</ele>
        <time>2016-11-30T12:17:16Z</time>
      </trkpt>
      <trkpt lat="43.67174" lon="5.73063">
        <ele>278.16</ele>
        <time>2016-11-30T12:17:23Z</time>
      </trkpt>
      <trkpt lat="43.67193" lon="5.7307">
        <ele>274.72</ele>
        <time>2016-11-30T12:17:32Z</time>
      </trkpt>
      <trkpt lat="43.67204" lon="5.73091">
        <ele>277.4</ele>
        <time>2016-11-30T12:17:39Z</time>
      </trkpt>
      <trkpt lat="43.67217" lon="5.73109">
        <ele>282.02</ele>
        <time>2016-11-30T12:17:46Z</time>
      </trkpt>
      <trkpt lat="43.67235" lon="5.73119">
        <ele>280.3</ele>
        <time>2016-11-30T12:17:54Z</time>
      </trkpt>
      <trkpt lat="43.67251" lon="5.73134">
        <ele>277.45</ele>
        <time>2016-11-30T12:18:02Z</time>
      </trkpt>
      <trkpt lat="43.67268" lon="5.73149">
        <ele>273.92</ele>
        <time>2016-11-30T12:18:10Z</time>
      </trkpt>
      <trkpt lat="43.67284" lon="5.73163">
        <ele>273.92</ele>
        <time>2016-11-30T12:18:17Z</time>
      </trkpt>
      <trkpt lat="43.67304" lon="5.7317">
        <ele>274.24</ele>
        <time>2016-11-30T12:18:25Z</time>
      </trkpt>
      <trkpt lat="43.6732" lon="5.73183">
        <ele>272.21</ele>
        <time>2016-11-30T12:18:34Z</time>
      </trkpt>
      <trkpt lat="43.67321" lon="5.73208">
        <ele>271.71</ele>
        <time>2016-11-30T12:18:50Z</time>
      </trkpt>
      <trkpt lat="43.67314" lon="5.73233">
        <ele>271.5</ele>
        <time>2016-11-30T12:18:58Z</time>
      </trkpt>
      <trkpt lat="43.67307" lon="5.7326">
        <ele>271.45</ele>
        <time>2016-11-30T12:19:06Z</time>
      </trkpt>
      <trkpt lat="43.67325" lon="5.73271">
        <ele>270.78</ele>
        <time>2016-11-30T12:19:18Z</time>
      </trkpt>
      <trkpt lat="43.67344" lon="5.73265">
        <ele>270.06</ele>
        <time>2016-11-30T12:19:25Z</time>
      </trkpt>
      <trkpt lat="43.67363" lon="5.73256">
        <ele>269.9</ele>
        <time>2016-11-30T12:19:32Z</time>
      </trkpt>
      <trkpt lat="43.67381" lon="5.7325">
        <ele>267.92</ele>
        <time>2016-11-30T12:19:39Z</time>
      </trkpt>
      <trkpt lat="43.67399" lon="5.7324">
        <ele>263.85</ele>
        <time>2016-11-30T12:19:46Z</time>
      </trkpt>
      <trkpt lat="43.67417" lon="5.73233">
        <ele>265.7</ele>
        <time>2016-11-30T12:19:53Z</time>
      </trkpt>
      <trkpt lat="43.67436" lon="5.73232">
        <ele>266.11</ele>
        <time>2016-11-30T12:19:59Z</time>
      </trkpt>
      <trkpt lat="43.67454" lon="5.73228">
        <ele>266.5</ele>
        <time>2016-11-30T12:20:07Z</time>
      </trkpt>
      <trkpt lat="43.67471" lon="5.73213">
        <ele>266.51</ele>
        <time>2016-11-30T12:20:14Z</time>
      </trkpt>
      <trkpt lat="43.67487" lon="5.73203">
        <ele>270.67</ele>
        <time>2016-11-30T12:20:21Z</time>
      </trkpt>
      <trkpt lat="43.67506" lon="5.73196">
        <ele>271.52</ele>
        <time>2016-11-30T12:20:29Z</time>
      </trkpt>
      <trkpt lat="43.67525" lon="5.7319">
        <ele>267.08</ele>
        <time>2016-11-30T12:20:36Z</time>
      </trkpt>
      <trkpt lat="43.67543" lon="5.73183">
        <ele>263.1</ele>
        <time>2016-11-30T12:20:43Z</time>
      </trkpt>
      <trkpt lat="43.67562" lon="5.73177">
        <ele>266.17</ele>
        <time>2016-11-30T12:20:50Z</time>
      </trkpt>
      <trkpt lat="43.67581" lon="5.7317">
        <ele>267.12</ele>
        <time>2016-11-30T12:20:57Z</time>
      </trkpt>
      <trkpt lat="43.676" lon="5.73163">
        <ele>269.24</ele>
        <time>2016-11-30T12:21:04Z</time>
      </trkpt>
      <trkpt lat="43.6762" lon="5.73158">
        <ele>270.71</ele>
        <time>2016-11-30T12:21:12Z</time>
      </trkpt>
      <trkpt lat="43.67639" lon="5.7315">
        <ele>272.67</ele>
        <time>2016-11-30T12:21:19Z</time>
      </trkpt>
      <trkpt lat="43.67658" lon="5.73144">
        <ele>271.75</ele>
        <time>2016-11-30T12:21:27Z</time>
      </trkpt>
      <trkpt lat="43.67676" lon="5.73137">
        <ele>272.99</ele>
        <time>2016-11-30T12:21:34Z</time>
      </trkpt>
      <trkpt lat="43.67694" lon="5.73133">
        <ele>275.46</ele>
        <time>2016-11-30T12:21:41Z</time>
      </trkpt>
      <trkpt lat="43.67698" lon="5.73159">
        <ele>271.02</ele>
        <time>2016-11-30T12:21:51Z</time>
      </trkpt>
      <trkpt lat="43.67698" lon="5.73184">
        <ele>271.37</ele>
        <time>2016-11-30T12:21:59Z</time>
      </trkpt>
      <trkpt lat="43.67713" lon="5.73202">
        <ele>277.83</ele>
        <time>2016-11-30T12:22:12Z</time>
      </trkpt>
      <trkpt lat="43.67728" lon="5.73219">
        <ele>282.3</ele>
        <time>2016-11-30T12:22:24Z</time>
      </trkpt>
      <trkpt lat="43.67744" lon="5.73232">
        <ele>281.45</ele>
        <time>2016-11-30T12:22:34Z</time>
      </trkpt>
      <trkpt lat="43.67763" lon="5.73238">
        <ele>287.8</ele>
        <time>2016-11-30T12:22:47Z</time>
      </trkpt>
      <trkpt lat="43.6778" lon="5.73247">
        <ele>287.48</ele>
        <time>2016-11-30T12:23:18Z</time>
      </trkpt>
      <trkpt lat="43.67799" lon="5.73256">
        <ele>286.22</ele>
        <time>2016-11-30T12:23:27Z</time>
      </trkpt>
      <trkpt lat="43.67816" lon="5.73249">
        <ele>287.91</ele>
        <time>2016-11-30T12:23:34Z</time>
      </trkpt>
      <trkpt lat="43.67836" lon="5.73238">
        <ele>288.63</ele>
        <time>2016-11-30T12:23:43Z</time>
      </trkpt>
      <trkpt lat="43.67854" lon="5.7323">
        <ele>287.05</ele>
        <time>2016-11-30T12:23:50Z</time>
      </trkpt>
      <trkpt lat="43.6787" lon="5.73218">
        <ele>285.71</ele>
        <time>2016-11-30T12:23:59Z</time>
      </trkpt>
      <trkpt lat="43.67891" lon="5.73212">
        <ele>286.94</ele>
        <time>2016-11-30T12:24:07Z</time>
      </trkpt>
      <trkpt lat="43.67911" lon="5.73214">
        <ele>287.25</ele>
        <time>2016-11-30T12:24:16Z</time>
      </trkpt>
      <trkpt lat="43.67928" lon="5.73223">
        <ele>292.53</ele>
        <time>2016-11-30T12:24:24Z</time>
      </trkpt>
      <trkpt lat="43.67945" lon="5.7323">
        <ele>294.12</ele>
        <time>2016-11-30T12:24:32Z</time>
      </trkpt>
      <trkpt lat="43.67964" lon="5.73226">
        <ele>291.57</ele>
        <time>2016-11-30T12:24:40Z</time>
      </trkpt>
      <trkpt lat="43.67983" lon="5.73233">
        <ele>291.29</ele>
        <time>2016-11-30T12:24:48Z</time>
      </trkpt>
      <trkpt lat="43.68002" lon="5.73236">
        <ele>291.34</ele>
        <time>2016-11-30T12:24:56Z</time>
      </trkpt>
      <trkpt lat="43.68021" lon="5.7324">
        <ele>288.85</ele>
        <time>2016-11-30T12:25:04Z</time>
      </trkpt>
      <trkpt lat="43.6804" lon="5.73245">
        <ele>288.84</ele>
        <time>2016-11-30T12:25:12Z</time>
      </trkpt>
      <trkpt lat="43.68059" lon="5.73249">
        <ele>288.33</ele>
        <time>2016-11-30T12:25:20Z</time>
      </trkpt>
      <trkpt lat="43.68077" lon="5.73251">
        <ele>286.19</ele>
        <time>2016-11-30T12:25:27Z</time>
      </trkpt>
      <trkpt lat="43.68097" lon="5.73254">
        <ele>288.21</ele>
        <time>2016-11-30T12:25:35Z</time>
      </trkpt>
      <trkpt lat="43.68117" lon="5.73258">
        <ele>290.12</ele>
        <time>2016-11-30T12:25:43Z</time>
      </trkpt>
      <trkpt lat="43.68137" lon="5.73258">
        <ele>293.94</ele>
        <time>2016-11-30T12:25:50Z</time>
      </trkpt>
      <trkpt lat="43.68155" lon="5.73259">
        <ele>292.24</ele>
        <time>2016-11-30T12:25:58Z</time>
      </trkpt>
      <trkpt lat="43.68175" lon="5.73255">
        <ele>291.23</ele>
        <time>2016-11-30T12:26:07Z</time>
      </trkpt>
      <trkpt lat="43.68194" lon="5.73259">
        <ele>287.96</ele>
        <time>2016-11-30T12:26:16Z</time>
      </trkpt>
      <trkpt lat="43.68212" lon="5.7326">
        <ele>289.71</ele>
        <time>2016-11-30T12:26:24Z</time>
      </trkpt>
      <trkpt lat="43.68231" lon="5.73261">
        <ele>291.58</ele>
        <time>2016-11-30T12:26:33Z</time>
      </trkpt>
      <trkpt lat="43.6825" lon="5.73255">
        <ele>296.59</ele>
        <time>2016-11-30T12:26:41Z</time>
      </trkpt>
      <trkpt lat="43.6827" lon="5.73245">
        <ele>297.03</ele>
        <time>2016-11-30T12:26:52Z</time>
      </trkpt>
      <trkpt lat="43.68286" lon="5.73235">
        <ele>304.36</ele>
        <time>2016-11-30T12:26:59Z</time>
      </trkpt>
      <trkpt lat="43.68303" lon="5.73227">
        <ele>305.87</ele>
        <time>2016-11-30T12:27:06Z</time>
      </trkpt>
      <trkpt lat="43.68323" lon="5.73224">
        <ele>309.54</ele>
        <time>2016-11-30T12:27:14Z</time>
      </trkpt>
      <trkpt lat="43.68344" lon="5.73221">
        <ele>305.04</ele>
        <time>2016-11-30T12:27:23Z</time>
      </trkpt>
      <trkpt lat="43.68363" lon="5.73219">
        <ele>304.77</ele>
        <time>2016-11-30T12:27:32Z</time>
      </trkpt>
      <trkpt lat="43.68381" lon="5.73225">
        <ele>306.93</ele>
        <time>2016-11-30T12:27:41Z</time>
      </trkpt>
      <trkpt lat="43.68401" lon="5.73235">
        <ele>308.78</ele>
        <time>2016-11-30T12:27:51Z</time>
      </trkpt>
      <trkpt lat="43.68415" lon="5.73254">
        <ele>313.49</ele>
        <time>2016-11-30T12:27:59Z</time>
      </trkpt>
      <trkpt lat="43.68433" lon="5.73268">
        <ele>314.23</ele>
        <time>2016-11-30T12:28:06Z</time>
      </trkpt>
      <trkpt lat="43.68447" lon="5.73286">
        <ele>313.5</ele>
        <time>2016-11-30T12:28:14Z</time>
      </trkpt>
      <trkpt lat="43.68462" lon="5.73301">
        <ele>313.44</ele>
        <time>2016-11-30T12:28:22Z</time>
      </trkpt>
      <trkpt lat="43.68478" lon="5.73314">
        <ele>313.81</ele>
        <time>2016-11-30T12:28:30Z</time>
      </trkpt>
      <trkpt lat="43.6849" lon="5.73335">
        <ele>314.8</ele>
        <time>2016-11-30T12:28:38Z</time>
      </trkpt>
      <trkpt lat="43.68503" lon="5.73353">
        <ele>314.2</ele>
        <time>2016-11-30T12:28:45Z</time>
      </trkpt>
      <trkpt lat="43.68515" lon="5.73373">
        <ele>316.2</ele>
        <time>2016-11-30T12:28:53Z</time>
      </trkpt>
      <trkpt lat="43.68528" lon="5.73392">
        <ele>314.38</ele>
        <time>2016-11-30T12:29:01Z</time>
      </trkpt>
      <trkpt lat="43.68545" lon="5.73408">
        <ele>314.68</ele>
        <time>2016-11-30T12:29:09Z</time>
      </trkpt>
      <trkpt lat="43.68559" lon="5.73423">
        <ele>315.49</ele>
        <time>2016-11-30T12:29:16Z</time>
      </trkpt>
      <trkpt lat="43.68575" lon="5.73438">
        <ele>314.25</ele>
        <time>2016-11-30T12:29:24Z</time>
      </trkpt>
      <trkpt lat="43.68589" lon="5.73459">
        <ele>314.34</ele>
        <time>2016-11-30T12:29:32Z</time>
      </trkpt>
      <trkpt lat="43.68596" lon="5.73483">
        <ele>310.39</ele>
        <time>2016-11-30T12:29:39Z</time>
      </trkpt>
      <trkpt lat="43.68607" lon="5.73505">
        <ele>308.19</ele>
        <time>2016-11-30T12:29:46Z</time>
      </trkpt>
      <trkpt lat="43.68619" lon="5.73528">
        <ele>306.87</ele>
        <time>2016-11-30T12:29:54Z</time>
      </trkpt>
      <trkpt lat="43.68632" lon="5.73546">
        <ele>303.84</ele>
        <time>2016-11-30T12:30:01Z</time>
      </trkpt>
      <trkpt lat="43.68644" lon="5.73565">
        <ele>301.32</ele>
        <time>2016-11-30T12:30:08Z</time>
      </trkpt>
      <trkpt lat="43.68657" lon="5.73582">
        <ele>300.81</ele>
        <time>2016-11-30T12:30:15Z</time>
      </trkpt>
      <trkpt lat="43.68671" lon="5.736">
        <ele>302.18</ele>
        <time>2016-11-30T12:30:23Z</time>
      </trkpt>
      <trkpt lat="43.68688" lon="5.73612">
        <ele>300.87</ele>
        <time>2016-11-30T12:30:30Z</time>
      </trkpt>
      <trkpt lat="43.68707" lon="5.73606">
        <ele>300.24</ele>
        <time>2016-11-30T12:30:38Z</time>
      </trkpt>
      <trkpt lat="43.68725" lon="5.73601">
        <ele>300.29</ele>
        <time>2016-11-30T12:30:46Z</time>
      </trkpt>
      <trkpt lat="43.68743" lon="5.73598">
        <ele>302.88</ele>
        <time>2016-11-30T12:30:53Z</time>
      </trkpt>
      <trkpt lat="43.68761" lon="5.73593">
        <ele>303.3</ele>
        <time>2016-11-30T12:31:00Z</time>
      </trkpt>
      <trkpt lat="43.6878" lon="5.73588">
        <ele>299.98</ele>
        <time>2016-11-30T12:31:08Z</time>
      </trkpt>
      <trkpt lat="43.688" lon="5.73585">
        <ele>302.86</ele>
        <time>2016-11-30T12:31:16Z</time>
      </trkpt>
      <trkpt lat="43.68819" lon="5.7359">
        <ele>303.84</ele>
        <time>2016-11-30T12:31:26Z</time>
      </trkpt>
      <trkpt lat="43.68838" lon="5.73595">
        <ele>304.13</ele>
        <time>2016-11-30T12:31:35Z</time>
      </trkpt>
      <trkpt lat="43.68858" lon="5.73588">
        <ele>302.89</ele>
        <time>2016-11-30T12:31:42Z</time>
      </trkpt>
      <trkpt lat="43.68874" lon="5.73575">
        <ele>298.85</ele>
        <time>2016-11-30T12:31:48Z</time>
      </trkpt>
      <trkpt lat="43.68893" lon="5.73566">
        <ele>294.89</ele>
        <time>2016-11-30T12:31:56Z</time>
      </trkpt>
      <trkpt lat="43.68909" lon="5.7355">
        <ele>298.84</ele>
        <time>2016-11-30T12:32:04Z</time>
      </trkpt>
      <trkpt lat="43.68928" lon="5.73538">
        <ele>299.26</ele>
        <time>2016-11-30T12:32:11Z</time>
      </trkpt>
      <trkpt lat="43.68948" lon="5.73532">
        <ele>302.25</ele>
        <time>2016-11-30T12:32:18Z</time>
      </trkpt>
      <trkpt lat="43.68967" lon="5.7353">
        <ele>302.5</ele>
        <time>2016-11-30T12:32:27Z</time>
      </trkpt>
      <trkpt lat="43.68983" lon="5.73521">
        <ele>303.58</ele>
        <time>2016-11-30T12:32:34Z</time>
      </trkpt>
      <trkpt lat="43.69001" lon="5.73511">
        <ele>302.13</ele>
        <time>2016-11-30T12:32:43Z</time>
      </trkpt>
      <trkpt lat="43.69018" lon="5.73497">
        <ele>305.41</ele>
        <time>2016-11-30T12:32:51Z</time>
      </trkpt>
      <trkpt lat="43.69035" lon="5.73483">
        <ele>306.33</ele>
        <time>2016-11-30T12:32:58Z</time>
      </trkpt>
      <trkpt lat="43.69055" lon="5.73478">
        <ele>304.46</ele>
        <time>2016-11-30T12:33:06Z</time>
      </trkpt>
      <trkpt lat="43.69075" lon="5.73484">
        <ele>300.81</ele>
        <time>2016-11-30T12:33:14Z</time>
      </trkpt>
      <trkpt lat="43.69093" lon="5.73493">
        <ele>303.93</ele>
        <time>2016-11-30T12:33:22Z</time>
      </trkpt>
      <trkpt lat="43.69112" lon="5.73494">
        <ele>305.44</ele>
        <time>2016-11-30T12:33:30Z</time>
      </trkpt>
      <trkpt lat="43.69132" lon="5.735">
        <ele>305.44</ele>
        <time>2016-11-30T12:33:39Z</time>
      </trkpt>
      <trkpt lat="43.6915" lon="5.73507">
        <ele>301.22</ele>
        <time>2016-11-30T12:33:46Z</time>
      </trkpt>
      <trkpt lat="43.69169" lon="5.73515">
        <ele>298.23</ele>
        <time>2016-11-30T12:33:54Z</time>
      </trkpt>
      <trkpt lat="43.69187" lon="5.73522">
        <ele>296.21</ele>
        <time>2016-11-30T12:34:01Z</time>
      </trkpt>
      <trkpt lat="43.69204" lon="5.73531">
        <ele>294.03</ele>
        <time>2016-11-30T12:34:09Z</time>
      </trkpt>
      <trkpt lat="43.69221" lon="5.7354">
        <ele>289.13</ele>
        <time>2016-11-30T12:34:17Z</time>
      </trkpt>
      <trkpt lat="43.69241" lon="5.73541">
        <ele>289.06</ele>
        <time>2016-11-30T12:34:24Z</time>
      </trkpt>
      <trkpt lat="43.69259" lon="5.73539">
        <ele>289.43</ele>
        <time>2016-11-30T12:34:31Z</time>
      </trkpt>
      <trkpt lat="43.69279" lon="5.73544">
        <ele>293.84</ele>
        <time>2016-11-30T12:34:38Z</time>
      </trkpt>
      <trkpt lat="43.69298" lon="5.73546">
        <ele>291.49</ele>
        <time>2016-11-30T12:34:45Z</time>
      </trkpt>
      <trkpt lat="43.69317" lon="5.73553">
        <ele>293.07</ele>
        <time>2016-11-30T12:34:53Z</time>
      </trkpt>
      <trkpt lat="43.69335" lon="5.73554">
        <ele>289.91</ele>
        <time>2016-11-30T12:35:01Z</time>
      </trkpt>
      <trkpt lat="43.69355" lon="5.73551">
        <ele>290.75</ele>
        <time>2016-11-30T12:35:09Z</time>
      </trkpt>
      <trkpt lat="43.69376" lon="5.73553">
        <ele>287.01</ele>
        <time>2016-11-30T12:35:17Z</time>
      </trkpt>
      <trkpt lat="43.69389" lon="5.73573">
        <ele>285.68</ele>
        <time>2016-11-30T12:35:24Z</time>
      </trkpt>
      <trkpt lat="43.69403" lon="5.7359">
        <ele>283.94</ele>
        <time>2016-11-30T12:35:31Z</time>
      </trkpt>
      <trkpt lat="43.6942" lon="5.73602">
        <ele>280.62</ele>
        <time>2016-11-30T12:35:37Z</time>
      </trkpt>
      <trkpt lat="43.69438" lon="5.73617">
        <ele>279.98</ele>
        <time>2016-11-30T12:35:46Z</time>
      </trkpt>
      <trkpt lat="43.69454" lon="5.73629">
        <ele>276.42</ele>
        <time>2016-11-30T12:35:54Z</time>
      </trkpt>
      <trkpt lat="43.69471" lon="5.7364">
        <ele>273.65</ele>
        <time>2016-11-30T12:36:01Z</time>
      </trkpt>
      <trkpt lat="43.69492" lon="5.73645">
        <ele>272.29</ele>
        <time>2016-11-30T12:36:09Z</time>
      </trkpt>
      <trkpt lat="43.69512" lon="5.73647">
        <ele>273.02</ele>
        <time>2016-11-30T12:36:17Z</time>
      </trkpt>
      <trkpt lat="43.6953" lon="5.73638">
        <ele>270.45</ele>
        <time>2016-11-30T12:36:24Z</time>
      </trkpt>
      <trkpt lat="43.6955" lon="5.73638">
        <ele>269.12</ele>
        <time>2016-11-30T12:36:31Z</time>
      </trkpt>
      <trkpt lat="43.69567" lon="5.73649">
        <ele>266.78</ele>
        <time>2016-11-30T12:36:40Z</time>
      </trkpt>
      <trkpt lat="43.69565" lon="5.73676">
        <ele>263.79</ele>
        <time>2016-11-30T12:36:49Z</time>
      </trkpt>
      <trkpt lat="43.69582" lon="5.73683">
        <ele>263.85</ele>
        <time>2016-11-30T12:36:58Z</time>
      </trkpt>
      <trkpt lat="43.696" lon="5.73675">
        <ele>261.77</ele>
        <time>2016-11-30T12:37:04Z</time>
      </trkpt>
      <trkpt lat="43.69619" lon="5.73676">
        <ele>264.03</ele>
        <time>2016-11-30T12:37:12Z</time>
      </trkpt>
      <trkpt lat="43.69637" lon="5.73675">
        <ele>264.67</ele>
        <time>2016-11-30T12:37:20Z</time>
      </trkpt>
      <trkpt lat="43.69656" lon="5.73669">
        <ele>262.15</ele>
        <time>2016-11-30T12:37:32Z</time>
      </trkpt>
      <trkpt lat="43.69693" lon="5.73636">
        <ele>274</ele>
        <time>2016-12-02T10:52:06Z</time>
      </trkpt>
      <trkpt lat="43.69674" lon="5.73645">
        <ele>269.12</ele>
        <time>2016-12-02T10:52:27Z</time>
      </trkpt>
      <trkpt lat="43.69654" lon="5.73643">
        <ele>270.25</ele>
        <time>2016-12-02T10:52:34Z</time>
      </trkpt>
      <trkpt lat="43.69634" lon="5.73644">
        <ele>274.76</ele>
        <time>2016-12-02T10:52:42Z</time>
      </trkpt>
      <trkpt lat="43.69618" lon="5.73657">
        <ele>273.83</ele>
        <time>2016-12-02T10:52:49Z</time>
      </trkpt>
      <trkpt lat="43.69601" lon="5.73671">
        <ele>275.59</ele>
        <time>2016-12-02T10:52:56Z</time>
      </trkpt>
      <trkpt lat="43.69585" lon="5.73683">
        <ele>275.86</ele>
        <time>2016-12-02T10:53:02Z</time>
      </trkpt>
      <trkpt lat="43.69569" lon="5.73694">
        <ele>276.16</ele>
        <time>2016-12-02T10:53:09Z</time>
      </trkpt>
      <trkpt lat="43.69552" lon="5.73709">
        <ele>273.96</ele>
        <time>2016-12-02T10:53:16Z</time>
      </trkpt>
      <trkpt lat="43.6954" lon="5.7373">
        <ele>270.97</ele>
        <time>2016-12-02T10:53:23Z</time>
      </trkpt>
      <trkpt lat="43.69531" lon="5.73753">
        <ele>268.71</ele>
        <time>2016-12-02T10:53:31Z</time>
      </trkpt>
      <trkpt lat="43.69515" lon="5.73766">
        <ele>265.43</ele>
        <time>2016-12-02T10:53:40Z</time>
      </trkpt>
      <trkpt lat="43.69494" lon="5.73759">
        <ele>263.51</ele>
        <time>2016-12-02T10:53:48Z</time>
      </trkpt>
      <trkpt lat="43.69476" lon="5.73755">
        <ele>263.88</ele>
        <time>2016-12-02T10:53:55Z</time>
      </trkpt>
      <trkpt lat="43.69456" lon="5.73755">
        <ele>266.6</ele>
        <time>2016-12-02T10:54:04Z</time>
      </trkpt>
      <trkpt lat="43.69437" lon="5.73749">
        <ele>270.66</ele>
        <time>2016-12-02T10:54:13Z</time>
      </trkpt>
      <trkpt lat="43.69418" lon="5.7374">
        <ele>275.2</ele>
        <time>2016-12-02T10:54:23Z</time>
      </trkpt>
      <trkpt lat="43.694" lon="5.73731">
        <ele>273.2</ele>
        <time>2016-12-02T10:54:31Z</time>
      </trkpt>
      <trkpt lat="43.69381" lon="5.73725">
        <ele>272.76</ele>
        <time>2016-12-02T10:54:40Z</time>
      </trkpt>
      <trkpt lat="43.69362" lon="5.73721">
        <ele>276.71</ele>
        <time>2016-12-02T10:54:48Z</time>
      </trkpt>
      <trkpt lat="43.69349" lon="5.73741">
        <ele>279.91</ele>
        <time>2016-12-02T10:54:58Z</time>
      </trkpt>
      <trkpt lat="43.69332" lon="5.73729">
        <ele>281.64</ele>
        <time>2016-12-02T10:55:11Z</time>
      </trkpt>
      <trkpt lat="43.69332" lon="5.73704">
        <ele>282.26</ele>
        <time>2016-12-02T10:55:19Z</time>
      </trkpt>
      <trkpt lat="43.69322" lon="5.73681">
        <ele>283.15</ele>
        <time>2016-12-02T10:55:27Z</time>
      </trkpt>
      <trkpt lat="43.69309" lon="5.73663">
        <ele>287.8</ele>
        <time>2016-12-02T10:55:38Z</time>
      </trkpt>
      <trkpt lat="43.6929" lon="5.73661">
        <ele>289.23</ele>
        <time>2016-12-02T10:55:48Z</time>
      </trkpt>
      <trkpt lat="43.69272" lon="5.7365">
        <ele>292.22</ele>
        <time>2016-12-02T10:55:57Z</time>
      </trkpt>
      <trkpt lat="43.69254" lon="5.73642">
        <ele>291.57</ele>
        <time>2016-12-02T10:56:06Z</time>
      </trkpt>
      <trkpt lat="43.69236" lon="5.73647">
        <ele>296.73</ele>
        <time>2016-12-02T10:56:18Z</time>
      </trkpt>
      <trkpt lat="43.69217" lon="5.73649">
        <ele>300.55</ele>
        <time>2016-12-02T10:56:28Z</time>
      </trkpt>
      <trkpt lat="43.69145" lon="5.73606">
        <ele>285.52</ele>
        <time>2016-12-02T10:57:08Z</time>
      </trkpt>
      <trkpt lat="43.69126" lon="5.73607">
        <ele>287.73</ele>
        <time>2016-12-02T10:57:14Z</time>
      </trkpt>
      <trkpt lat="43.69108" lon="5.73614">
        <ele>293.87</ele>
        <time>2016-12-02T10:57:21Z</time>
      </trkpt>
      <trkpt lat="43.69089" lon="5.73624">
        <ele>298.61</ele>
        <time>2016-12-02T10:57:28Z</time>
      </trkpt>
      <trkpt lat="43.69071" lon="5.73614">
        <ele>298.21</ele>
        <time>2016-12-02T10:57:36Z</time>
      </trkpt>
      <trkpt lat="43.69061" lon="5.73592">
        <ele>300.09</ele>
        <time>2016-12-02T10:57:43Z</time>
      </trkpt>
      <trkpt lat="43.69053" lon="5.73568">
        <ele>300.7</ele>
        <time>2016-12-02T10:57:50Z</time>
      </trkpt>
      <trkpt lat="43.69033" lon="5.73567">
        <ele>295.08</ele>
        <time>2016-12-02T10:58:02Z</time>
      </trkpt>
      <trkpt lat="43.69016" lon="5.73578">
        <ele>296.71</ele>
        <time>2016-12-02T10:58:09Z</time>
      </trkpt>
      <trkpt lat="43.68999" lon="5.73591">
        <ele>294.54</ele>
        <time>2016-12-02T10:58:16Z</time>
      </trkpt>
      <trkpt lat="43.68981" lon="5.736">
        <ele>289.56</ele>
        <time>2016-12-02T10:58:24Z</time>
      </trkpt>
      <trkpt lat="43.68963" lon="5.73612">
        <ele>287.42</ele>
        <time>2016-12-02T10:58:32Z</time>
      </trkpt>
      <trkpt lat="43.68946" lon="5.73625">
        <ele>288.97</ele>
        <time>2016-12-02T10:58:39Z</time>
      </trkpt>
      <trkpt lat="43.68927" lon="5.73635">
        <ele>288.98</ele>
        <time>2016-12-02T10:58:47Z</time>
      </trkpt>
      <trkpt lat="43.68909" lon="5.73644">
        <ele>287.93</ele>
        <time>2016-12-02T10:58:55Z</time>
      </trkpt>
      <trkpt lat="43.68889" lon="5.73643">
        <ele>295.16</ele>
        <time>2016-12-02T10:59:03Z</time>
      </trkpt>
      <trkpt lat="43.68873" lon="5.73629">
        <ele>299.86</ele>
        <time>2016-12-02T10:59:12Z</time>
      </trkpt>
      <trkpt lat="43.68857" lon="5.73617">
        <ele>305.09</ele>
        <time>2016-12-02T10:59:20Z</time>
      </trkpt>
      <trkpt lat="43.6884" lon="5.73605">
        <ele>305.79</ele>
        <time>2016-12-02T10:59:28Z</time>
      </trkpt>
      <trkpt lat="43.68824" lon="5.73592">
        <ele>303.17</ele>
        <time>2016-12-02T10:59:36Z</time>
      </trkpt>
      <trkpt lat="43.68809" lon="5.73577">
        <ele>303.32</ele>
        <time>2016-12-02T10:59:44Z</time>
      </trkpt>
      <trkpt lat="43.6879" lon="5.73577">
        <ele>304.15</ele>
        <time>2016-12-02T10:59:52Z</time>
      </trkpt>
      <trkpt lat="43.68771" lon="5.73583">
        <ele>304.16</ele>
        <time>2016-12-02T11:00:01Z</time>
      </trkpt>
      <trkpt lat="43.68751" lon="5.73589">
        <ele>304.96</ele>
        <time>2016-12-02T11:00:09Z</time>
      </trkpt>
      <trkpt lat="43.68732" lon="5.73597">
        <ele>306.17</ele>
        <time>2016-12-02T11:00:16Z</time>
      </trkpt>
      <trkpt lat="43.68712" lon="5.73603">
        <ele>303.94</ele>
        <time>2016-12-02T11:00:23Z</time>
      </trkpt>
      <trkpt lat="43.68693" lon="5.73608">
        <ele>302.27</ele>
        <time>2016-12-02T11:00:30Z</time>
      </trkpt>
      <trkpt lat="43.68675" lon="5.73604">
        <ele>301.62</ele>
        <time>2016-12-02T11:00:36Z</time>
      </trkpt>
      <trkpt lat="43.68661" lon="5.73584">
        <ele>300.4</ele>
        <time>2016-12-02T11:00:43Z</time>
      </trkpt>
      <trkpt lat="43.68649" lon="5.7356">
        <ele>300.8</ele>
        <time>2016-12-02T11:00:51Z</time>
      </trkpt>
      <trkpt lat="43.68636" lon="5.7354">
        <ele>300.11</ele>
        <time>2016-12-02T11:00:59Z</time>
      </trkpt>
      <trkpt lat="43.68622" lon="5.73524">
        <ele>303.1</ele>
        <time>2016-12-02T11:01:07Z</time>
      </trkpt>
      <trkpt lat="43.68609" lon="5.73503">
        <ele>308.11</ele>
        <time>2016-12-02T11:01:17Z</time>
      </trkpt>
      <trkpt lat="43.68589" lon="5.73501">
        <ele>308.37</ele>
        <time>2016-12-02T11:01:26Z</time>
      </trkpt>
      <trkpt lat="43.68576" lon="5.73519">
        <ele>309.62</ele>
        <time>2016-12-02T11:01:32Z</time>
      </trkpt>
      <trkpt lat="43.68535" lon="5.73661">
        <ele>320.01</ele>
        <time>2016-12-02T11:02:09Z</time>
      </trkpt>
      <trkpt lat="43.68517" lon="5.73664">
        <ele>326.4</ele>
        <time>2016-12-02T11:02:19Z</time>
      </trkpt>
      <trkpt lat="43.68512" lon="5.73689">
        <ele>319.13</ele>
        <time>2016-12-02T11:02:29Z</time>
      </trkpt>
      <trkpt lat="43.68511" lon="5.73716">
        <ele>316.85</ele>
        <time>2016-12-02T11:02:37Z</time>
      </trkpt>
      <trkpt lat="43.68512" lon="5.73743">
        <ele>311.62</ele>
        <time>2016-12-02T11:02:44Z</time>
      </trkpt>
      <trkpt lat="43.68515" lon="5.73769">
        <ele>312.57</ele>
        <time>2016-12-02T11:02:51Z</time>
      </trkpt>
      <trkpt lat="43.68516" lon="5.73794">
        <ele>312.48</ele>
        <time>2016-12-02T11:02:58Z</time>
      </trkpt>
      <trkpt lat="43.68518" lon="5.73822">
        <ele>311.64</ele>
        <time>2016-12-02T11:03:06Z</time>
      </trkpt>
      <trkpt lat="43.68506" lon="5.73845">
        <ele>313.48</ele>
        <time>2016-12-02T11:03:14Z</time>
      </trkpt>
      <trkpt lat="43.68495" lon="5.73866">
        <ele>312.57</ele>
        <time>2016-12-02T11:03:21Z</time>
      </trkpt>
      <trkpt lat="43.68489" lon="5.73891">
        <ele>313.23</ele>
        <time>2016-12-02T11:03:39Z</time>
      </trkpt>
      <trkpt lat="43.68474" lon="5.73904">
        <ele>313.34</ele>
        <time>2016-12-02T11:03:48Z</time>
      </trkpt>
      <trkpt lat="43.68459" lon="5.73921">
        <ele>314.7</ele>
        <time>2016-12-02T11:03:54Z</time>
      </trkpt>
      <trkpt lat="43.68443" lon="5.73941">
        <ele>313.17</ele>
        <time>2016-12-02T11:04:02Z</time>
      </trkpt>
      <trkpt lat="43.68429" lon="5.73959">
        <ele>310.34</ele>
        <time>2016-12-02T11:04:08Z</time>
      </trkpt>
      <trkpt lat="43.68418" lon="5.73978">
        <ele>307.8</ele>
        <time>2016-12-02T11:04:15Z</time>
      </trkpt>
      <trkpt lat="43.68424" lon="5.74003">
        <ele>304.56</ele>
        <time>2016-12-02T11:04:23Z</time>
      </trkpt>
      <trkpt lat="43.68427" lon="5.7403">
        <ele>301.61</ele>
        <time>2016-12-02T11:04:32Z</time>
      </trkpt>
      <trkpt lat="43.68429" lon="5.74058">
        <ele>303.98</ele>
        <time>2016-12-02T11:04:40Z</time>
      </trkpt>
      <trkpt lat="43.68428" lon="5.74083">
        <ele>304.36</ele>
        <time>2016-12-02T11:04:47Z</time>
      </trkpt>
      <trkpt lat="43.68434" lon="5.74109">
        <ele>303.26</ele>
        <time>2016-12-02T11:04:55Z</time>
      </trkpt>
      <trkpt lat="43.68432" lon="5.74136">
        <ele>300.65</ele>
        <time>2016-12-02T11:05:02Z</time>
      </trkpt>
      <trkpt lat="43.68423" lon="5.74158">
        <ele>300.57</ele>
        <time>2016-12-02T11:05:10Z</time>
      </trkpt>
      <trkpt lat="43.68408" lon="5.74174">
        <ele>307.42</ele>
        <time>2016-12-02T11:05:19Z</time>
      </trkpt>
      <trkpt lat="43.68395" lon="5.74194">
        <ele>309.86</ele>
        <time>2016-12-02T11:05:27Z</time>
      </trkpt>
      <trkpt lat="43.68384" lon="5.74213">
        <ele>308.28</ele>
        <time>2016-12-02T11:05:34Z</time>
      </trkpt>
      <trkpt lat="43.68371" lon="5.74234">
        <ele>306.89</ele>
        <time>2016-12-02T11:05:41Z</time>
      </trkpt>
      <trkpt lat="43.6836" lon="5.74254">
        <ele>305.51</ele>
        <time>2016-12-02T11:05:47Z</time>
      </trkpt>
      <trkpt lat="43.68346" lon="5.74272">
        <ele>306.23</ele>
        <time>2016-12-02T11:05:53Z</time>
      </trkpt>
      <trkpt lat="43.68334" lon="5.74292">
        <ele>303.75</ele>
        <time>2016-12-02T11:06:00Z</time>
      </trkpt>
      <trkpt lat="43.68322" lon="5.74313">
        <ele>307.39</ele>
        <time>2016-12-02T11:06:09Z</time>
      </trkpt>
      <trkpt lat="43.6831" lon="5.74335">
        <ele>310.74</ele>
        <time>2016-12-02T11:06:18Z</time>
      </trkpt>
      <trkpt lat="43.68298" lon="5.74356">
        <ele>315.77</ele>
        <time>2016-12-02T11:06:28Z</time>
      </trkpt>
      <trkpt lat="43.68247" lon="5.74435">
        <ele>317.16</ele>
        <time>2016-12-02T11:07:08Z</time>
      </trkpt>
      <trkpt lat="43.68231" lon="5.74447">
        <ele>325.04</ele>
        <time>2016-12-02T11:07:17Z</time>
      </trkpt>
      <trkpt lat="43.68215" lon="5.74461">
        <ele>326.3</ele>
        <time>2016-12-02T11:07:26Z</time>
      </trkpt>
      <trkpt lat="43.68196" lon="5.7446">
        <ele>331.79</ele>
        <time>2016-12-02T11:07:36Z</time>
      </trkpt>
      <trkpt lat="43.6818" lon="5.74441">
        <ele>337.44</ele>
        <time>2016-12-02T11:07:46Z</time>
      </trkpt>
      <trkpt lat="43.68162" lon="5.74438">
        <ele>341.94</ele>
        <time>2016-12-02T11:08:04Z</time>
      </trkpt>
      <trkpt lat="43.68144" lon="5.74441">
        <ele>347.08</ele>
        <time>2016-12-02T11:08:20Z</time>
      </trkpt>
      <trkpt lat="43.68125" lon="5.74443">
        <ele>346.29</ele>
        <time>2016-12-02T11:08:33Z</time>
      </trkpt>
      <trkpt lat="43.68106" lon="5.74446">
        <ele>351.36</ele>
        <time>2016-12-02T11:08:46Z</time>
      </trkpt>
      <trkpt lat="43.68086" lon="5.74448">
        <ele>355.19</ele>
        <time>2016-12-02T11:08:55Z</time>
      </trkpt>
      <trkpt lat="43.68067" lon="5.74447">
        <ele>359.44</ele>
        <time>2016-12-02T11:09:04Z</time>
      </trkpt>
      <trkpt lat="43.68048" lon="5.7445">
        <ele>359.19</ele>
        <time>2016-12-02T11:09:12Z</time>
      </trkpt>
      <trkpt lat="43.68028" lon="5.7445">
        <ele>361.36</ele>
        <time>2016-12-02T11:09:21Z</time>
      </trkpt>
      <trkpt lat="43.68008" lon="5.74446">
        <ele>361.4</ele>
        <time>2016-12-02T11:09:30Z</time>
      </trkpt>
      <trkpt lat="43.67991" lon="5.74442">
        <ele>362.99</ele>
        <time>2016-12-02T11:09:38Z</time>
      </trkpt>
      <trkpt lat="43.6797" lon="5.74444">
        <ele>363.75</ele>
        <time>2016-12-02T11:09:47Z</time>
      </trkpt>
      <trkpt lat="43.67951" lon="5.74447">
        <ele>362.73</ele>
        <time>2016-12-02T11:09:56Z</time>
      </trkpt>
      <trkpt lat="43.67933" lon="5.74451">
        <ele>362.85</ele>
        <time>2016-12-02T11:10:04Z</time>
      </trkpt>
      <trkpt lat="43.67913" lon="5.74458">
        <ele>363.37</ele>
        <time>2016-12-02T11:10:13Z</time>
      </trkpt>
      <trkpt lat="43.67895" lon="5.74465">
        <ele>362.19</ele>
        <time>2016-12-02T11:10:21Z</time>
      </trkpt>
      <trkpt lat="43.67879" lon="5.74475">
        <ele>363.24</ele>
        <time>2016-12-02T11:10:28Z</time>
      </trkpt>
      <trkpt lat="43.6786" lon="5.74479">
        <ele>366.67</ele>
        <time>2016-12-02T11:10:36Z</time>
      </trkpt>
      <trkpt lat="43.67842" lon="5.74476">
        <ele>367.94</ele>
        <time>2016-12-02T11:10:44Z</time>
      </trkpt>
      <trkpt lat="43.67824" lon="5.74483">
        <ele>370.95</ele>
        <time>2016-12-02T11:10:53Z</time>
      </trkpt>
      <trkpt lat="43.67806" lon="5.74497">
        <ele>373.17</ele>
        <time>2016-12-02T11:11:02Z</time>
      </trkpt>
      <trkpt lat="43.6779" lon="5.74511">
        <ele>374.24</ele>
        <time>2016-12-02T11:11:11Z</time>
      </trkpt>
      <trkpt lat="43.67774" lon="5.74524">
        <ele>374.12</ele>
        <time>2016-12-02T11:11:19Z</time>
      </trkpt>
      <trkpt lat="43.67758" lon="5.74538">
        <ele>373.15</ele>
        <time>2016-12-02T11:11:27Z</time>
      </trkpt>
      <trkpt lat="43.67743" lon="5.74557">
        <ele>374.97</ele>
        <time>2016-12-02T11:11:34Z</time>
      </trkpt>
      <trkpt lat="43.67692" lon="5.74624">
        <ele>387.96</ele>
        <time>2016-12-02T11:12:09Z</time>
      </trkpt>
      <trkpt lat="43.67681" lon="5.74646">
        <ele>390.54</ele>
        <time>2016-12-02T11:12:13Z</time>
      </trkpt>
      <trkpt lat="43.67672" lon="5.74669">
        <ele>380.72</ele>
        <time>2016-12-02T11:12:21Z</time>
      </trkpt>
      <trkpt lat="43.67667" lon="5.74695">
        <ele>376.59</ele>
        <time>2016-12-02T11:12:28Z</time>
      </trkpt>
      <trkpt lat="43.67661" lon="5.74719">
        <ele>375.03</ele>
        <time>2016-12-02T11:12:35Z</time>
      </trkpt>
      <trkpt lat="43.67655" lon="5.74744">
        <ele>377.49</ele>
        <time>2016-12-02T11:12:42Z</time>
      </trkpt>
      <trkpt lat="43.67653" lon="5.74771">
        <ele>380.54</ele>
        <time>2016-12-02T11:12:49Z</time>
      </trkpt>
      <trkpt lat="43.67651" lon="5.74796">
        <ele>381.79</ele>
        <time>2016-12-02T11:12:57Z</time>
      </trkpt>
      <trkpt lat="43.67652" lon="5.74824">
        <ele>383.08</ele>
        <time>2016-12-02T11:13:05Z</time>
      </trkpt>
      <trkpt lat="43.6766" lon="5.74847">
        <ele>380.88</ele>
        <time>2016-12-02T11:13:12Z</time>
      </trkpt>
      <trkpt lat="43.67664" lon="5.74876">
        <ele>382.82</ele>
        <time>2016-12-02T11:13:20Z</time>
      </trkpt>
      <trkpt lat="43.67659" lon="5.74903">
        <ele>383.23</ele>
        <time>2016-12-02T11:13:28Z</time>
      </trkpt>
      <trkpt lat="43.6765" lon="5.74925">
        <ele>381.32</ele>
        <time>2016-12-02T11:13:35Z</time>
      </trkpt>
      <trkpt lat="43.67636" lon="5.74942">
        <ele>380.65</ele>
        <time>2016-12-02T11:13:42Z</time>
      </trkpt>
      <trkpt lat="43.67618" lon="5.74955">
        <ele>381.83</ele>
        <time>2016-12-02T11:13:50Z</time>
      </trkpt>
      <trkpt lat="43.67598" lon="5.74958">
        <ele>379.5</ele>
        <time>2016-12-02T11:13:58Z</time>
      </trkpt>
      <trkpt lat="43.67579" lon="5.74954">
        <ele>381.23</ele>
        <time>2016-12-02T11:14:07Z</time>
      </trkpt>
      <trkpt lat="43.67559" lon="5.74945">
        <ele>383.18</ele>
        <time>2016-12-02T11:14:16Z</time>
      </trkpt>
      <trkpt lat="43.67541" lon="5.74934">
        <ele>382.66</ele>
        <time>2016-12-02T11:14:24Z</time>
      </trkpt>
      <trkpt lat="43.67525" lon="5.74917">
        <ele>381.38</ele>
        <time>2016-12-02T11:14:32Z</time>
      </trkpt>
      <trkpt lat="43.67511" lon="5.74902">
        <ele>381.25</ele>
        <time>2016-12-02T11:14:39Z</time>
      </trkpt>
      <trkpt lat="43.67492" lon="5.74899">
        <ele>381.74</ele>
        <time>2016-12-02T11:14:46Z</time>
      </trkpt>
      <trkpt lat="43.67474" lon="5.74905">
        <ele>385.69</ele>
        <time>2016-12-02T11:14:54Z</time>
      </trkpt>
      <trkpt lat="43.67457" lon="5.74919">
        <ele>387.68</ele>
        <time>2016-12-02T11:15:01Z</time>
      </trkpt>
      <trkpt lat="43.67444" lon="5.74937">
        <ele>386.34</ele>
        <time>2016-12-02T11:15:08Z</time>
      </trkpt>
      <trkpt lat="43.67436" lon="5.74964">
        <ele>383.13</ele>
        <time>2016-12-02T11:15:15Z</time>
      </trkpt>
      <trkpt lat="43.67435" lon="5.74992">
        <ele>379.38</ele>
        <time>2016-12-02T11:15:24Z</time>
      </trkpt>
      <trkpt lat="43.67432" lon="5.7502">
        <ele>378.43</ele>
        <time>2016-12-02T11:15:32Z</time>
      </trkpt>
      <trkpt lat="43.67427" lon="5.75047">
        <ele>379.74</ele>
        <time>2016-12-02T11:15:40Z</time>
      </trkpt>
      <trkpt lat="43.67418" lon="5.75073">
        <ele>381.73</ele>
        <time>2016-12-02T11:15:48Z</time>
      </trkpt>
      <trkpt lat="43.67403" lon="5.75092">
        <ele>380.87</ele>
        <time>2016-12-02T11:15:56Z</time>
      </trkpt>
      <trkpt lat="43.67384" lon="5.75104">
        <ele>380.11</ele>
        <time>2016-12-02T11:16:03Z</time>
      </trkpt>
      <trkpt lat="43.67364" lon="5.75099">
        <ele>381.82</ele>
        <time>2016-12-02T11:16:11Z</time>
      </trkpt>
      <trkpt lat="43.67348" lon="5.75083">
        <ele>380.42</ele>
        <time>2016-12-02T11:16:19Z</time>
      </trkpt>
      <trkpt lat="43.67333" lon="5.75068">
        <ele>383.14</ele>
        <time>2016-12-02T11:16:26Z</time>
      </trkpt>
      <trkpt lat="43.67313" lon="5.75066">
        <ele>383.26</ele>
        <time>2016-12-02T11:16:34Z</time>
      </trkpt>
      <trkpt lat="43.67253" lon="5.75165">
        <ele>389.12</ele>
        <time>2016-12-02T11:17:08Z</time>
      </trkpt>
      <trkpt lat="43.67244" lon="5.7519">
        <ele>392.74</ele>
        <time>2016-12-02T11:17:16Z</time>
      </trkpt>
      <trkpt lat="43.67229" lon="5.75205">
        <ele>387.23</ele>
        <time>2016-12-02T11:17:23Z</time>
      </trkpt>
      <trkpt lat="43.67211" lon="5.75217">
        <ele>381.78</ele>
        <time>2016-12-02T11:17:31Z</time>
      </trkpt>
      <trkpt lat="43.67196" lon="5.75231">
        <ele>380.56</ele>
        <time>2016-12-02T11:17:38Z</time>
      </trkpt>
      <trkpt lat="43.67185" lon="5.75257">
        <ele>379.16</ele>
        <time>2016-12-02T11:17:45Z</time>
      </trkpt>
      <trkpt lat="43.6718" lon="5.75283">
        <ele>382.83</ele>
        <time>2016-12-02T11:17:52Z</time>
      </trkpt>
      <trkpt lat="43.67181" lon="5.75308">
        <ele>384.49</ele>
        <time>2016-12-02T11:18:00Z</time>
      </trkpt>
      <trkpt lat="43.67181" lon="5.75336">
        <ele>385.11</ele>
        <time>2016-12-02T11:18:08Z</time>
      </trkpt>
      <trkpt lat="43.67181" lon="5.75363">
        <ele>386.06</ele>
        <time>2016-12-02T11:18:16Z</time>
      </trkpt>
      <trkpt lat="43.67179" lon="5.7539">
        <ele>387.03</ele>
        <time>2016-12-02T11:18:24Z</time>
      </trkpt>
      <trkpt lat="43.67177" lon="5.75415">
        <ele>385.57</ele>
        <time>2016-12-02T11:18:32Z</time>
      </trkpt>
      <trkpt lat="43.67165" lon="5.75436">
        <ele>385.01</ele>
        <time>2016-12-02T11:18:40Z</time>
      </trkpt>
      <trkpt lat="43.67168" lon="5.75461">
        <ele>386.01</ele>
        <time>2016-12-02T11:19:35Z</time>
      </trkpt>
      <trkpt lat="43.67173" lon="5.75466">
        <ele>390.07</ele>
        <time>2016-12-02T11:20:39Z</time>
      </trkpt>
      <trkpt lat="43.67177" lon="5.75491">
        <ele>388.41</ele>
        <time>2016-12-02T11:21:00Z</time>
      </trkpt>
      <trkpt lat="43.67159" lon="5.755">
        <ele>393.59</ele>
        <time>2016-12-02T11:21:15Z</time>
      </trkpt>
      <trkpt lat="43.67139" lon="5.75499">
        <ele>394.59</ele>
        <time>2016-12-02T11:21:22Z</time>
      </trkpt>
      <trkpt lat="43.67121" lon="5.75499">
        <ele>394.25</ele>
        <time>2016-12-02T11:21:31Z</time>
      </trkpt>
      <trkpt lat="43.67043" lon="5.75438">
        <ele>385.87</ele>
        <time>2016-12-02T11:22:22Z</time>
      </trkpt>
      <trkpt lat="43.67025" lon="5.75429">
        <ele>378.43</ele>
        <time>2016-12-02T11:22:28Z</time>
      </trkpt>
      <trkpt lat="43.67028" lon="5.75399">
        <ele>373.51</ele>
        <time>2016-12-02T11:22:34Z</time>
      </trkpt>
      <trkpt lat="43.67038" lon="5.75374">
        <ele>359.74</ele>
        <time>2016-12-02T11:22:39Z</time>
      </trkpt>
      <trkpt lat="43.67035" lon="5.75347">
        <ele>351.01</ele>
        <time>2016-12-02T11:22:47Z</time>
      </trkpt>
      <trkpt lat="43.67033" lon="5.75318">
        <ele>351.21</ele>
        <time>2016-12-02T11:22:55Z</time>
      </trkpt>
      <trkpt lat="43.6702" lon="5.75296">
        <ele>356.11</ele>
        <time>2016-12-02T11:23:02Z</time>
      </trkpt>
      <trkpt lat="43.67002" lon="5.75285">
        <ele>348.73</ele>
        <time>2016-12-02T11:23:09Z</time>
      </trkpt>
      <trkpt lat="43.66987" lon="5.75267">
        <ele>350.39</ele>
        <time>2016-12-02T11:23:16Z</time>
      </trkpt>
      <trkpt lat="43.66972" lon="5.7525">
        <ele>353.71</ele>
        <time>2016-12-02T11:23:22Z</time>
      </trkpt>
      <trkpt lat="43.66958" lon="5.75233">
        <ele>347.34</ele>
        <time>2016-12-02T11:23:28Z</time>
      </trkpt>
      <trkpt lat="43.66939" lon="5.75236">
        <ele>351.52</ele>
        <time>2016-12-02T11:23:36Z</time>
      </trkpt>
      <trkpt lat="43.66926" lon="5.75257">
        <ele>350.44</ele>
        <time>2016-12-02T11:23:46Z</time>
      </trkpt>
      <trkpt lat="43.66916" lon="5.75278">
        <ele>337.02</ele>
        <time>2016-12-02T11:24:15Z</time>
      </trkpt>
      <trkpt lat="43.66915" lon="5.75304">
        <ele>357.72</ele>
        <time>2016-12-02T11:24:34Z</time>
      </trkpt>
      <trkpt lat="43.66913" lon="5.7533">
        <ele>367.19</ele>
        <time>2016-12-02T11:26:24Z</time>
      </trkpt>
      <trkpt lat="43.66908" lon="5.75356">
        <ele>371.16</ele>
        <time>2016-12-02T11:26:30Z</time>
      </trkpt>
      <trkpt lat="43.66897" lon="5.7538">
        <ele>376.38</ele>
        <time>2016-12-02T11:26:36Z</time>
      </trkpt>
      <trkpt lat="43.66885" lon="5.75399">
        <ele>375.92</ele>
        <time>2016-12-02T11:26:43Z</time>
      </trkpt>
      <trkpt lat="43.66872" lon="5.75418">
        <ele>375.41</ele>
        <time>2016-12-02T11:26:49Z</time>
      </trkpt>
      <trkpt lat="43.66869" lon="5.75443">
        <ele>377.89</ele>
        <time>2016-12-02T11:26:57Z</time>
      </trkpt>
      <trkpt lat="43.66863" lon="5.7547">
        <ele>381.5</ele>
        <time>2016-12-02T11:27:03Z</time>
      </trkpt>
      <trkpt lat="43.66867" lon="5.75499">
        <ele>384.01</ele>
        <time>2016-12-02T11:27:10Z</time>
      </trkpt>
      <trkpt lat="43.66872" lon="5.75526">
        <ele>385.79</ele>
        <time>2016-12-02T11:27:18Z</time>
      </trkpt>
      <trkpt lat="43.66875" lon="5.75555">
        <ele>386.61</ele>
        <time>2016-12-02T11:27:26Z</time>
      </trkpt>
      <trkpt lat="43.6687" lon="5.7558">
        <ele>387.01</ele>
        <time>2016-12-02T11:27:32Z</time>
      </trkpt>
      <trkpt lat="43.66861" lon="5.75606">
        <ele>389.15</ele>
        <time>2016-12-02T11:27:39Z</time>
      </trkpt>
      <trkpt lat="43.66856" lon="5.75632">
        <ele>392.84</ele>
        <time>2016-12-02T11:27:46Z</time>
      </trkpt>
      <trkpt lat="43.66851" lon="5.75656">
        <ele>392.68</ele>
        <time>2016-12-02T11:27:53Z</time>
      </trkpt>
      <trkpt lat="43.66843" lon="5.75679">
        <ele>394.86</ele>
        <time>2016-12-02T11:28:00Z</time>
      </trkpt>
      <trkpt lat="43.66835" lon="5.75702">
        <ele>393.28</ele>
        <time>2016-12-02T11:28:07Z</time>
      </trkpt>
      <trkpt lat="43.66834" lon="5.7573">
        <ele>391.91</ele>
        <time>2016-12-02T11:28:15Z</time>
      </trkpt>
      <trkpt lat="43.66826" lon="5.75754">
        <ele>389.43</ele>
        <time>2016-12-02T11:28:23Z</time>
      </trkpt>
      <trkpt lat="43.66818" lon="5.75779">
        <ele>390.53</ele>
        <time>2016-12-02T11:28:30Z</time>
      </trkpt>
      <trkpt lat="43.66807" lon="5.75801">
        <ele>389.52</ele>
        <time>2016-12-02T11:28:38Z</time>
      </trkpt>
      <trkpt lat="43.66799" lon="5.75823">
        <ele>389.19</ele>
        <time>2016-12-02T11:28:44Z</time>
      </trkpt>
      <trkpt lat="43.66794" lon="5.7585">
        <ele>388.8</ele>
        <time>2016-12-02T11:28:51Z</time>
      </trkpt>
      <trkpt lat="43.66792" lon="5.75875">
        <ele>388.02</ele>
        <time>2016-12-02T11:28:57Z</time>
      </trkpt>
      <trkpt lat="43.66789" lon="5.759">
        <ele>387.35</ele>
        <time>2016-12-02T11:29:04Z</time>
      </trkpt>
      <trkpt lat="43.6678" lon="5.75922">
        <ele>384.35</ele>
        <time>2016-12-02T11:29:11Z</time>
      </trkpt>
      <trkpt lat="43.66772" lon="5.75945">
        <ele>382.96</ele>
        <time>2016-12-02T11:29:17Z</time>
      </trkpt>
      <trkpt lat="43.66772" lon="5.75973">
        <ele>384.74</ele>
        <time>2016-12-02T11:29:25Z</time>
      </trkpt>
      <trkpt lat="43.66779" lon="5.75998">
        <ele>387.19</ele>
        <time>2016-12-02T11:29:32Z</time>
      </trkpt>
      <trkpt lat="43.66786" lon="5.76024">
        <ele>390.2</ele>
        <time>2016-12-02T11:29:39Z</time>
      </trkpt>
      <trkpt lat="43.66791" lon="5.76052">
        <ele>393.77</ele>
        <time>2016-12-02T11:29:46Z</time>
      </trkpt>
      <trkpt lat="43.66794" lon="5.76077">
        <ele>392.5</ele>
        <time>2016-12-02T11:29:52Z</time>
      </trkpt>
      <trkpt lat="43.66797" lon="5.76104">
        <ele>393.49</ele>
        <time>2016-12-02T11:29:59Z</time>
      </trkpt>
      <trkpt lat="43.66799" lon="5.76131">
        <ele>394.28</ele>
        <time>2016-12-02T11:30:06Z</time>
      </trkpt>
      <trkpt lat="43.66802" lon="5.76156">
        <ele>391.92</ele>
        <time>2016-12-02T11:30:13Z</time>
      </trkpt>
      <trkpt lat="43.66805" lon="5.76181">
        <ele>391.68</ele>
        <time>2016-12-02T11:30:20Z</time>
      </trkpt>
      <trkpt lat="43.66817" lon="5.76202">
        <ele>391.59</ele>
        <time>2016-12-02T11:30:27Z</time>
      </trkpt>
      <trkpt lat="43.66834" lon="5.76214">
        <ele>392.77</ele>
        <time>2016-12-02T11:30:36Z</time>
      </trkpt>
      <trkpt lat="43.66852" lon="5.76231">
        <ele>388.88</ele>
        <time>2016-12-02T11:32:31Z</time>
      </trkpt>
      <trkpt lat="43.66866" lon="5.7625">
        <ele>388.53</ele>
        <time>2016-12-02T11:32:38Z</time>
      </trkpt>
      <trkpt lat="43.66884" lon="5.7626">
        <ele>386.16</ele>
        <time>2016-12-02T11:32:46Z</time>
      </trkpt>
      <trkpt lat="43.66902" lon="5.76254">
        <ele>386.32</ele>
        <time>2016-12-02T11:32:53Z</time>
      </trkpt>
      <trkpt lat="43.66923" lon="5.76251">
        <ele>385.81</ele>
        <time>2016-12-02T11:33:00Z</time>
      </trkpt>
      <trkpt lat="43.66939" lon="5.76263">
        <ele>384.97</ele>
        <time>2016-12-02T11:33:06Z</time>
      </trkpt>
      <trkpt lat="43.66955" lon="5.76276">
        <ele>383.33</ele>
        <time>2016-12-02T11:33:12Z</time>
      </trkpt>
      <trkpt lat="43.66974" lon="5.76287">
        <ele>382.7</ele>
        <time>2016-12-02T11:33:19Z</time>
      </trkpt>
      <trkpt lat="43.66989" lon="5.76302">
        <ele>379.85</ele>
        <time>2016-12-02T11:33:26Z</time>
      </trkpt>
      <trkpt lat="43.66988" lon="5.76327">
        <ele>376.9</ele>
        <time>2016-12-02T11:33:33Z</time>
      </trkpt>
      <trkpt lat="43.66982" lon="5.76353">
        <ele>370.02</ele>
        <time>2016-12-02T11:33:41Z</time>
      </trkpt>
      <trkpt lat="43.66976" lon="5.76378">
        <ele>366.41</ele>
        <time>2016-12-02T11:33:49Z</time>
      </trkpt>
      <trkpt lat="43.66969" lon="5.76402">
        <ele>367.73</ele>
        <time>2016-12-02T11:33:55Z</time>
      </trkpt>
      <trkpt lat="43.6696" lon="5.76425">
        <ele>362.61</ele>
        <time>2016-12-02T11:34:02Z</time>
      </trkpt>
      <trkpt lat="43.66953" lon="5.76451">
        <ele>360.56</ele>
        <time>2016-12-02T11:34:08Z</time>
      </trkpt>
      <trkpt lat="43.6694" lon="5.76472">
        <ele>359.55</ele>
        <time>2016-12-02T11:34:14Z</time>
      </trkpt>
      <trkpt lat="43.66932" lon="5.76497">
        <ele>360.03</ele>
        <time>2016-12-02T11:34:20Z</time>
      </trkpt>
      <trkpt lat="43.66916" lon="5.76514">
        <ele>360.26</ele>
        <time>2016-12-02T11:34:27Z</time>
      </trkpt>
      <trkpt lat="43.66898" lon="5.7653">
        <ele>362.02</ele>
        <time>2016-12-02T11:34:34Z</time>
      </trkpt>
      <trkpt lat="43.66895" lon="5.76555">
        <ele>358.78</ele>
        <time>2016-12-02T11:34:41Z</time>
      </trkpt>
      <trkpt lat="43.66883" lon="5.76576">
        <ele>355.26</ele>
        <time>2016-12-02T11:34:48Z</time>
      </trkpt>
      <trkpt lat="43.66861" lon="5.76576">
        <ele>356.94</ele>
        <time>2016-12-02T11:34:55Z</time>
      </trkpt>
      <trkpt lat="43.66842" lon="5.76574">
        <ele>359.27</ele>
        <time>2016-12-02T11:35:02Z</time>
      </trkpt>
      <trkpt lat="43.66821" lon="5.76574">
        <ele>359.96</ele>
        <time>2016-12-02T11:35:10Z</time>
      </trkpt>
      <trkpt lat="43.66802" lon="5.76576">
        <ele>359.63</ele>
        <time>2016-12-02T11:35:17Z</time>
      </trkpt>
      <trkpt lat="43.66784" lon="5.76576">
        <ele>360.98</ele>
        <time>2016-12-02T11:35:24Z</time>
      </trkpt>
      <trkpt lat="43.66765" lon="5.7658">
        <ele>362.52</ele>
        <time>2016-12-02T11:35:31Z</time>
      </trkpt>
      <trkpt lat="43.66749" lon="5.76595">
        <ele>360.59</ele>
        <time>2016-12-02T11:35:39Z</time>
      </trkpt>
      <trkpt lat="43.66731" lon="5.76605">
        <ele>360.6</ele>
        <time>2016-12-02T11:35:47Z</time>
      </trkpt>
      <trkpt lat="43.66713" lon="5.76597">
        <ele>362.53</ele>
        <time>2016-12-02T11:35:54Z</time>
      </trkpt>
      <trkpt lat="43.66694" lon="5.76598">
        <ele>363.01</ele>
        <time>2016-12-02T11:36:01Z</time>
      </trkpt>
      <trkpt lat="43.66675" lon="5.76596">
        <ele>363.28</ele>
        <time>2016-12-02T11:36:09Z</time>
      </trkpt>
      <trkpt lat="43.66658" lon="5.76586">
        <ele>359.27</ele>
        <time>2016-12-02T11:36:17Z</time>
      </trkpt>
      <trkpt lat="43.66637" lon="5.76582">
        <ele>363.67</ele>
        <time>2016-12-02T11:36:25Z</time>
      </trkpt>
      <trkpt lat="43.66619" lon="5.76584">
        <ele>368.03</ele>
        <time>2016-12-02T11:36:32Z</time>
      </trkpt>
      <trkpt lat="43.66599" lon="5.7659">
        <ele>369.8</ele>
        <time>2016-12-02T11:36:40Z</time>
      </trkpt>
      <trkpt lat="43.66581" lon="5.76593">
        <ele>372.88</ele>
        <time>2016-12-02T11:36:50Z</time>
      </trkpt>
      <trkpt lat="43.6657" lon="5.76615">
        <ele>374.15</ele>
        <time>2016-12-02T11:37:08Z</time>
      </trkpt>
      <trkpt lat="43.66563" lon="5.76641">
        <ele>374.76</ele>
        <time>2016-12-02T11:37:15Z</time>
      </trkpt>
      <trkpt lat="43.66553" lon="5.76666">
        <ele>377.05</ele>
        <time>2016-12-02T11:37:23Z</time>
      </trkpt>
      <trkpt lat="43.66533" lon="5.7667">
        <ele>378.36</ele>
        <time>2016-12-02T11:37:32Z</time>
      </trkpt>
      <trkpt lat="43.66518" lon="5.76653">
        <ele>375.48</ele>
        <time>2016-12-02T11:37:40Z</time>
      </trkpt>
      <trkpt lat="43.66504" lon="5.76632">
        <ele>370.78</ele>
        <time>2016-12-02T11:37:47Z</time>
      </trkpt>
      <trkpt lat="43.66485" lon="5.76622">
        <ele>367.72</ele>
        <time>2016-12-02T11:37:54Z</time>
      </trkpt>
      <trkpt lat="43.66466" lon="5.76611">
        <ele>368.44</ele>
        <time>2016-12-02T11:38:02Z</time>
      </trkpt>
      <trkpt lat="43.66447" lon="5.76602">
        <ele>365.99</ele>
        <time>2016-12-02T11:38:09Z</time>
      </trkpt>
      <trkpt lat="43.66428" lon="5.766">
        <ele>368.22</ele>
        <time>2016-12-02T11:38:16Z</time>
      </trkpt>
      <trkpt lat="43.66409" lon="5.76602">
        <ele>369.94</ele>
        <time>2016-12-02T11:38:23Z</time>
      </trkpt>
      <trkpt lat="43.66391" lon="5.76604">
        <ele>368.53</ele>
        <time>2016-12-02T11:38:35Z</time>
      </trkpt>
      <trkpt lat="43.66373" lon="5.76596">
        <ele>367.2</ele>
        <time>2016-12-02T11:38:42Z</time>
      </trkpt>
      <trkpt lat="43.66355" lon="5.76583">
        <ele>367.66</ele>
        <time>2016-12-02T11:38:49Z</time>
      </trkpt>
      <trkpt lat="43.66342" lon="5.76565">
        <ele>367.19</ele>
        <time>2016-12-02T11:38:55Z</time>
      </trkpt>
      <trkpt lat="43.66326" lon="5.7655">
        <ele>358.93</ele>
        <time>2016-12-02T11:39:03Z</time>
      </trkpt>
      <trkpt lat="43.66312" lon="5.7657">
        <ele>354.02</ele>
        <time>2016-12-02T11:39:52Z</time>
      </trkpt>
      <trkpt lat="43.66296" lon="5.76582">
        <ele>352.72</ele>
        <time>2016-12-02T11:40:27Z</time>
      </trkpt>
      <trkpt lat="43.66276" lon="5.76579">
        <ele>356.22</ele>
        <time>2016-12-02T11:40:37Z</time>
      </trkpt>
      <trkpt lat="43.66258" lon="5.76572">
        <ele>357.06</ele>
        <time>2016-12-02T11:40:43Z</time>
      </trkpt>
      <trkpt lat="43.66241" lon="5.76562">
        <ele>353.68</ele>
        <time>2016-12-02T11:40:49Z</time>
      </trkpt>
      <trkpt lat="43.66227" lon="5.76544">
        <ele>353.28</ele>
        <time>2016-12-02T11:40:56Z</time>
      </trkpt>
      <trkpt lat="43.6621" lon="5.76531">
        <ele>354.13</ele>
        <time>2016-12-02T11:41:03Z</time>
      </trkpt>
      <trkpt lat="43.66194" lon="5.76514">
        <ele>353.33</ele>
        <time>2016-12-02T11:41:10Z</time>
      </trkpt>
      <trkpt lat="43.66181" lon="5.76496">
        <ele>351.15</ele>
        <time>2016-12-02T11:41:16Z</time>
      </trkpt>
      <trkpt lat="43.66164" lon="5.76481">
        <ele>350.01</ele>
        <time>2016-12-02T11:41:23Z</time>
      </trkpt>
      <trkpt lat="43.66156" lon="5.76457">
        <ele>349.07</ele>
        <time>2016-12-02T11:41:30Z</time>
      </trkpt>
      <trkpt lat="43.66146" lon="5.76435">
        <ele>350.72</ele>
        <time>2016-12-02T11:41:37Z</time>
      </trkpt>
      <trkpt lat="43.66134" lon="5.76413">
        <ele>352.05</ele>
        <time>2016-12-02T11:41:45Z</time>
      </trkpt>
      <trkpt lat="43.66124" lon="5.7639">
        <ele>353.84</ele>
        <time>2016-12-02T11:41:52Z</time>
      </trkpt>
      <trkpt lat="43.66118" lon="5.76364">
        <ele>353.57</ele>
        <time>2016-12-02T11:42:00Z</time>
      </trkpt>
      <trkpt lat="43.66114" lon="5.76339">
        <ele>356.12</ele>
        <time>2016-12-02T11:42:13Z</time>
      </trkpt>
      <trkpt lat="43.66126" lon="5.76319">
        <ele>357.35</ele>
        <time>2016-12-02T11:42:24Z</time>
      </trkpt>
      <trkpt lat="43.66138" lon="5.76297">
        <ele>356.02</ele>
        <time>2016-12-02T11:42:31Z</time>
      </trkpt>
      <trkpt lat="43.66149" lon="5.76277">
        <ele>352.93</ele>
        <time>2016-12-02T11:42:38Z</time>
      </trkpt>
      <trkpt lat="43.66161" lon="5.76254">
        <ele>348.41</ele>
        <time>2016-12-02T11:42:45Z</time>
      </trkpt>
      <trkpt lat="43.66165" lon="5.76227">
        <ele>346.61</ele>
        <time>2016-12-02T11:42:52Z</time>
      </trkpt>
      <trkpt lat="43.66171" lon="5.76202">
        <ele>345.45</ele>
        <time>2016-12-02T11:42:59Z</time>
      </trkpt>
      <trkpt lat="43.66176" lon="5.76177">
        <ele>341.13</ele>
        <time>2016-12-02T11:43:06Z</time>
      </trkpt>
      <trkpt lat="43.66178" lon="5.76151">
        <ele>340.82</ele>
        <time>2016-12-02T11:43:13Z</time>
      </trkpt>
      <trkpt lat="43.66178" lon="5.76123">
        <ele>337.54</ele>
        <time>2016-12-02T11:43:20Z</time>
      </trkpt>
      <trkpt lat="43.66187" lon="5.76098">
        <ele>336.19</ele>
        <time>2016-12-02T11:43:27Z</time>
      </trkpt>
      <trkpt lat="43.66195" lon="5.76073">
        <ele>334.37</ele>
        <time>2016-12-02T11:43:34Z</time>
      </trkpt>
      <trkpt lat="43.662" lon="5.76049">
        <ele>333.45</ele>
        <time>2016-12-02T11:43:41Z</time>
      </trkpt>
      <trkpt lat="43.66191" lon="5.76026">
        <ele>330.48</ele>
        <time>2016-12-02T11:43:49Z</time>
      </trkpt>
      <trkpt lat="43.66182" lon="5.76003">
        <ele>326.55</ele>
        <time>2016-12-02T11:43:56Z</time>
      </trkpt>
      <trkpt lat="43.66185" lon="5.75976">
        <ele>323.25</ele>
        <time>2016-12-02T11:44:02Z</time>
      </trkpt>
      <trkpt lat="43.66194" lon="5.75953">
        <ele>323</ele>
        <time>2016-12-02T11:44:09Z</time>
      </trkpt>
      <trkpt lat="43.66193" lon="5.75926">
        <ele>319.42</ele>
        <time>2016-12-02T11:44:17Z</time>
      </trkpt>
      <trkpt lat="43.66197" lon="5.75897">
        <ele>318.47</ele>
        <time>2016-12-02T11:44:24Z</time>
      </trkpt>
      <trkpt lat="43.662" lon="5.7587">
        <ele>317.34</ele>
        <time>2016-12-02T11:44:30Z</time>
      </trkpt>
      <trkpt lat="43.66209" lon="5.75843">
        <ele>319.49</ele>
        <time>2016-12-02T11:44:37Z</time>
      </trkpt>
      <trkpt lat="43.66214" lon="5.75816">
        <ele>317.25</ele>
        <time>2016-12-02T11:44:45Z</time>
      </trkpt>
      <trkpt lat="43.66224" lon="5.75793">
        <ele>315.23</ele>
        <time>2016-12-02T11:44:51Z</time>
      </trkpt>
      <trkpt lat="43.66236" lon="5.7577">
        <ele>310.34</ele>
        <time>2016-12-02T11:44:59Z</time>
      </trkpt>
      <trkpt lat="43.66249" lon="5.75752">
        <ele>308.42</ele>
        <time>2016-12-02T11:45:06Z</time>
      </trkpt>
      <trkpt lat="43.66264" lon="5.75738">
        <ele>306.68</ele>
        <time>2016-12-02T11:45:13Z</time>
      </trkpt>
      <trkpt lat="43.66279" lon="5.75719">
        <ele>302.83</ele>
        <time>2016-12-02T11:45:21Z</time>
      </trkpt>
      <trkpt lat="43.66292" lon="5.75699">
        <ele>302.09</ele>
        <time>2016-12-02T11:45:33Z</time>
      </trkpt>
      <trkpt lat="43.66297" lon="5.75674">
        <ele>297.88</ele>
        <time>2016-12-02T11:45:43Z</time>
      </trkpt>
      <trkpt lat="43.66294" lon="5.75648">
        <ele>294.9</ele>
        <time>2016-12-02T11:45:51Z</time>
      </trkpt>
      <trkpt lat="43.66301" lon="5.75625">
        <ele>293.57</ele>
        <time>2016-12-02T11:45:58Z</time>
      </trkpt>
      <trkpt lat="43.66308" lon="5.75602">
        <ele>289.93</ele>
        <time>2016-12-02T11:46:06Z</time>
      </trkpt>
      <trkpt lat="43.66311" lon="5.75577">
        <ele>286.66</ele>
        <time>2016-12-02T11:46:12Z</time>
      </trkpt>
      <trkpt lat="43.66321" lon="5.75553">
        <ele>285.81</ele>
        <time>2016-12-02T11:46:20Z</time>
      </trkpt>
      <trkpt lat="43.66337" lon="5.75539">
        <ele>283.69</ele>
        <time>2016-12-02T11:46:28Z</time>
      </trkpt>
      <trkpt lat="43.66353" lon="5.75526">
        <ele>284.93</ele>
        <time>2016-12-02T11:46:35Z</time>
      </trkpt>
      <trkpt lat="43.66374" lon="5.75519">
        <ele>287.54</ele>
        <time>2016-12-02T11:46:43Z</time>
      </trkpt>
      <trkpt lat="43.66393" lon="5.75512">
        <ele>285.33</ele>
        <time>2016-12-02T11:46:50Z</time>
      </trkpt>
      <trkpt lat="43.66412" lon="5.755">
        <ele>285.43</ele>
        <time>2016-12-02T11:46:57Z</time>
      </trkpt>
      <trkpt lat="43.66426" lon="5.75484">
        <ele>285.07</ele>
        <time>2016-12-02T11:47:14Z</time>
      </trkpt>
      <trkpt lat="43.66437" lon="5.75459">
        <ele>284.85</ele>
        <time>2016-12-02T11:47:34Z</time>
      </trkpt>
      <trkpt lat="43.6643" lon="5.75434">
        <ele>281.02</ele>
        <time>2016-12-02T11:47:44Z</time>
      </trkpt>
      <trkpt lat="43.66409" lon="5.75427">
        <ele>278.58</ele>
        <time>2016-12-02T11:47:51Z</time>
      </trkpt>
      <trkpt lat="43.66401" lon="5.75404">
        <ele>275.27</ele>
        <time>2016-12-02T11:48:00Z</time>
      </trkpt>
      <trkpt lat="43.66403" lon="5.75378">
        <ele>273.49</ele>
        <time>2016-12-02T11:48:08Z</time>
      </trkpt>
      <trkpt lat="43.66408" lon="5.75353">
        <ele>275.26</ele>
        <time>2016-12-02T11:48:16Z</time>
      </trkpt>
      <trkpt lat="43.66411" lon="5.75327">
        <ele>277.45</ele>
        <time>2016-12-02T11:48:23Z</time>
      </trkpt>
      <trkpt lat="43.66398" lon="5.75307">
        <ele>276.11</ele>
        <time>2016-12-02T11:48:29Z</time>
      </trkpt>
      <trkpt lat="43.66403" lon="5.75281">
        <ele>275.43</ele>
        <time>2016-12-02T11:48:37Z</time>
      </trkpt>
      <trkpt lat="43.66408" lon="5.75254">
        <ele>275.42</ele>
        <time>2016-12-02T11:48:44Z</time>
      </trkpt>
      <trkpt lat="43.66407" lon="5.75229">
        <ele>278.23</ele>
        <time>2016-12-02T11:48:51Z</time>
      </trkpt>
      <trkpt lat="43.66396" lon="5.75208">
        <ele>275.98</ele>
        <time>2016-12-02T11:48:57Z</time>
      </trkpt>
      <trkpt lat="43.66393" lon="5.7518">
        <ele>271.63</ele>
        <time>2016-12-02T11:49:04Z</time>
      </trkpt>
      <trkpt lat="43.66386" lon="5.75157">
        <ele>270.35</ele>
        <time>2016-12-02T11:49:11Z</time>
      </trkpt>
      <trkpt lat="43.66384" lon="5.75132">
        <ele>269.82</ele>
        <time>2016-12-02T11:49:17Z</time>
      </trkpt>
      <trkpt lat="43.66384" lon="5.75103">
        <ele>268.91</ele>
        <time>2016-12-02T11:49:25Z</time>
      </trkpt>
      <trkpt lat="43.66391" lon="5.75078">
        <ele>276.92</ele>
        <time>2016-12-02T11:49:36Z</time>
      </trkpt>
      <trkpt lat="43.66398" lon="5.75055">
        <ele>273.11</ele>
        <time>2016-12-02T11:49:43Z</time>
      </trkpt>
      <trkpt lat="43.66388" lon="5.75033">
        <ele>269.4</ele>
        <time>2016-12-02T11:49:54Z</time>
      </trkpt>
      <trkpt lat="43.66383" lon="5.75008">
        <ele>270.05</ele>
        <time>2016-12-02T11:50:02Z</time>
      </trkpt>
      <trkpt lat="43.66384" lon="5.74981">
        <ele>267.71</ele>
        <time>2016-12-02T11:50:09Z</time>
      </trkpt>
      <trkpt lat="43.66385" lon="5.74956">
        <ele>270.01</ele>
        <time>2016-12-02T11:50:16Z</time>
      </trkpt>
      <trkpt lat="43.66394" lon="5.74934">
        <ele>272.05</ele>
        <time>2016-12-02T11:50:22Z</time>
      </trkpt>
      <trkpt lat="43.66409" lon="5.74915">
        <ele>275.18</ele>
        <time>2016-12-02T11:50:29Z</time>
      </trkpt>
      <trkpt lat="43.66414" lon="5.74891">
        <ele>273.68</ele>
        <time>2016-12-02T11:50:35Z</time>
      </trkpt>
      <trkpt lat="43.66423" lon="5.74867">
        <ele>272.92</ele>
        <time>2016-12-02T11:50:43Z</time>
      </trkpt>
      <trkpt lat="43.66425" lon="5.74839">
        <ele>272.35</ele>
        <time>2016-12-02T11:50:50Z</time>
      </trkpt>
      <trkpt lat="43.66433" lon="5.74815">
        <ele>272.1</ele>
        <time>2016-12-02T11:50:57Z</time>
      </trkpt>
      <trkpt lat="43.66438" lon="5.7479">
        <ele>271.39</ele>
        <time>2016-12-02T11:51:04Z</time>
      </trkpt>
      <trkpt lat="43.66437" lon="5.74764">
        <ele>269.32</ele>
        <time>2016-12-02T11:51:10Z</time>
      </trkpt>
      <trkpt lat="43.66448" lon="5.74743">
        <ele>272.68</ele>
        <time>2016-12-02T11:51:17Z</time>
      </trkpt>
      <trkpt lat="43.66457" lon="5.7472">
        <ele>271.28</ele>
        <time>2016-12-02T11:51:24Z</time>
      </trkpt>
      <trkpt lat="43.66462" lon="5.74695">
        <ele>271.94</ele>
        <time>2016-12-02T11:51:32Z</time>
      </trkpt>
      <trkpt lat="43.66471" lon="5.74672">
        <ele>271.19</ele>
        <time>2016-12-02T11:51:38Z</time>
      </trkpt>
      <trkpt lat="43.66479" lon="5.74647">
        <ele>272.59</ele>
        <time>2016-12-02T11:51:46Z</time>
      </trkpt>
      <trkpt lat="43.66492" lon="5.7463">
        <ele>271.51</ele>
        <time>2016-12-02T11:51:52Z</time>
      </trkpt>
      <trkpt lat="43.665" lon="5.74605">
        <ele>273.83</ele>
        <time>2016-12-02T11:52:02Z</time>
      </trkpt>
      <trkpt lat="43.66516" lon="5.74592">
        <ele>272.29</ele>
        <time>2016-12-02T11:52:09Z</time>
      </trkpt>
      <trkpt lat="43.6653" lon="5.74572">
        <ele>271.79</ele>
        <time>2016-12-02T11:52:16Z</time>
      </trkpt>
      <trkpt lat="43.66539" lon="5.7455">
        <ele>273.57</ele>
        <time>2016-12-02T11:52:23Z</time>
      </trkpt>
      <trkpt lat="43.66542" lon="5.74521">
        <ele>278.09</ele>
        <time>2016-12-02T11:52:31Z</time>
      </trkpt>
      <trkpt lat="43.66545" lon="5.74496">
        <ele>278.33</ele>
        <time>2016-12-02T11:52:38Z</time>
      </trkpt>
      <trkpt lat="43.66545" lon="5.74466">
        <ele>277.66</ele>
        <time>2016-12-02T11:54:20Z</time>
      </trkpt>
      <trkpt lat="43.66546" lon="5.7444">
        <ele>278.44</ele>
        <time>2016-12-02T11:54:27Z</time>
      </trkpt>
      <trkpt lat="43.66537" lon="5.74416">
        <ele>277.32</ele>
        <time>2016-12-02T11:54:34Z</time>
      </trkpt>
      <trkpt lat="43.66535" lon="5.74389">
        <ele>274.99</ele>
        <time>2016-12-02T11:54:41Z</time>
      </trkpt>
      <trkpt lat="43.6654" lon="5.74366">
        <ele>275.65</ele>
        <time>2016-12-02T11:54:48Z</time>
      </trkpt>
      <trkpt lat="43.66548" lon="5.74342">
        <ele>279.45</ele>
        <time>2016-12-02T11:54:54Z</time>
      </trkpt>
      <trkpt lat="43.66558" lon="5.74319">
        <ele>284.7</ele>
        <time>2016-12-02T11:55:01Z</time>
      </trkpt>
      <trkpt lat="43.66573" lon="5.74306">
        <ele>287.78</ele>
        <time>2016-12-02T11:55:08Z</time>
      </trkpt>
      <trkpt lat="43.66586" lon="5.74286">
        <ele>288.44</ele>
        <time>2016-12-02T11:55:14Z</time>
      </trkpt>
      <trkpt lat="43.66595" lon="5.74264">
        <ele>284.78</ele>
        <time>2016-12-02T11:55:20Z</time>
      </trkpt>
      <trkpt lat="43.66601" lon="5.74237">
        <ele>283.74</ele>
        <time>2016-12-02T11:55:27Z</time>
      </trkpt>
      <trkpt lat="43.66612" lon="5.74209">
        <ele>282.29</ele>
        <time>2016-12-02T11:55:34Z</time>
      </trkpt>
      <trkpt lat="43.6662" lon="5.74187">
        <ele>279.12</ele>
        <time>2016-12-02T11:55:40Z</time>
      </trkpt>
      <trkpt lat="43.66631" lon="5.74166">
        <ele>278.77</ele>
        <time>2016-12-02T11:55:46Z</time>
      </trkpt>
      <trkpt lat="43.66637" lon="5.74139">
        <ele>280.74</ele>
        <time>2016-12-02T11:55:53Z</time>
      </trkpt>
      <trkpt lat="43.66637" lon="5.74114">
        <ele>278.58</ele>
        <time>2016-12-02T11:56:02Z</time>
      </trkpt>
      <trkpt lat="43.66637" lon="5.74089">
        <ele>279.02</ele>
        <time>2016-12-02T11:56:10Z</time>
      </trkpt>
      <trkpt lat="43.66646" lon="5.74064">
        <ele>275.68</ele>
        <time>2016-12-02T11:56:18Z</time>
      </trkpt>
      <trkpt lat="43.66656" lon="5.74038">
        <ele>276.88</ele>
        <time>2016-12-02T11:56:26Z</time>
      </trkpt>
      <trkpt lat="43.66662" lon="5.74012">
        <ele>272.45</ele>
        <time>2016-12-02T11:56:34Z</time>
      </trkpt>
      <trkpt lat="43.66671" lon="5.73986">
        <ele>269.29</ele>
        <time>2016-12-02T11:56:42Z</time>
      </trkpt>
      <trkpt lat="43.66685" lon="5.73966">
        <ele>272.53</ele>
        <time>2016-12-02T11:56:49Z</time>
      </trkpt>
      <trkpt lat="43.667" lon="5.73947">
        <ele>273.65</ele>
        <time>2016-12-02T11:56:55Z</time>
      </trkpt>
      <trkpt lat="43.66715" lon="5.73932">
        <ele>276.9</ele>
        <time>2016-12-02T11:57:00Z</time>
      </trkpt>
      <trkpt lat="43.6673" lon="5.73916">
        <ele>280.26</ele>
        <time>2016-12-02T11:57:07Z</time>
      </trkpt>
      <trkpt lat="43.66744" lon="5.73895">
        <ele>279.78</ele>
        <time>2016-12-02T11:57:16Z</time>
      </trkpt>
      <trkpt lat="43.66758" lon="5.7388">
        <ele>277.99</ele>
        <time>2016-12-02T11:57:24Z</time>
      </trkpt>
      <trkpt lat="43.66772" lon="5.73862">
        <ele>276.39</ele>
        <time>2016-12-02T11:57:32Z</time>
      </trkpt>
      <trkpt lat="43.66787" lon="5.73847">
        <ele>280.33</ele>
        <time>2016-12-02T11:57:39Z</time>
      </trkpt>
      <trkpt lat="43.66787" lon="5.73822">
        <ele>280.25</ele>
        <time>2016-12-02T11:57:48Z</time>
      </trkpt>
      <trkpt lat="43.66777" lon="5.73799">
        <ele>278.73</ele>
        <time>2016-12-02T11:57:55Z</time>
      </trkpt>
      <trkpt lat="43.66772" lon="5.73774">
        <ele>275.79</ele>
        <time>2016-12-02T11:58:02Z</time>
      </trkpt>
      <trkpt lat="43.66779" lon="5.7375">
        <ele>277.57</ele>
        <time>2016-12-02T11:58:09Z</time>
      </trkpt>
      <trkpt lat="43.6679" lon="5.7373">
        <ele>277.84</ele>
        <time>2016-12-02T11:58:15Z</time>
      </trkpt>
      <trkpt lat="43.66801" lon="5.73707">
        <ele>280.1</ele>
        <time>2016-12-02T11:58:23Z</time>
      </trkpt>
      <trkpt lat="43.66814" lon="5.73689">
        <ele>280.98</ele>
        <time>2016-12-02T11:58:30Z</time>
      </trkpt>
      <trkpt lat="43.66829" lon="5.73674">
        <ele>281.66</ele>
        <time>2016-12-02T11:58:37Z</time>
      </trkpt>
      <trkpt lat="43.66846" lon="5.73663">
        <ele>279</ele>
        <time>2016-12-02T11:58:43Z</time>
      </trkpt>
      <trkpt lat="43.66861" lon="5.73651">
        <ele>279.45</ele>
        <time>2016-12-02T11:58:50Z</time>
      </trkpt>
      <trkpt lat="43.66878" lon="5.73637">
        <ele>277.29</ele>
        <time>2016-12-02T11:58:58Z</time>
      </trkpt>
      <trkpt lat="43.66897" lon="5.73624">
        <ele>282.3</ele>
        <time>2016-12-02T11:59:06Z</time>
      </trkpt>
      <trkpt lat="43.66916" lon="5.73613">
        <ele>282.77</ele>
        <time>2016-12-02T11:59:13Z</time>
      </trkpt>
      <trkpt lat="43.66933" lon="5.73599">
        <ele>279</ele>
        <time>2016-12-02T11:59:21Z</time>
      </trkpt>
      <trkpt lat="43.66953" lon="5.73593">
        <ele>281.8</ele>
        <time>2016-12-02T11:59:28Z</time>
      </trkpt>
      <trkpt lat="43.66971" lon="5.73589">
        <ele>283.28</ele>
        <time>2016-12-02T11:59:34Z</time>
      </trkpt>
      <trkpt lat="43.66989" lon="5.73574">
        <ele>285.2</ele>
        <time>2016-12-02T11:59:41Z</time>
      </trkpt>
      <trkpt lat="43.67007" lon="5.73565">
        <ele>284.32</ele>
        <time>2016-12-02T11:59:47Z</time>
      </trkpt>
      <trkpt lat="43.67026" lon="5.73556">
        <ele>283.69</ele>
        <time>2016-12-02T11:59:54Z</time>
      </trkpt>
      <trkpt lat="43.67044" lon="5.73544">
        <ele>281.18</ele>
        <time>2016-12-02T12:00:02Z</time>
      </trkpt>
      <trkpt lat="43.67062" lon="5.73533">
        <ele>281.55</ele>
        <time>2016-12-02T12:00:09Z</time>
      </trkpt>
      <trkpt lat="43.67081" lon="5.73525">
        <ele>280.1</ele>
        <time>2016-12-02T12:00:16Z</time>
      </trkpt>
      <trkpt lat="43.67098" lon="5.73513">
        <ele>280.26</ele>
        <time>2016-12-02T12:00:23Z</time>
      </trkpt>
      <trkpt lat="43.67114" lon="5.73498">
        <ele>274.67</ele>
        <time>2016-12-02T12:00:30Z</time>
      </trkpt>
      <trkpt lat="43.67129" lon="5.73483">
        <ele>272.14</ele>
        <time>2016-12-02T12:00:37Z</time>
      </trkpt>
      <trkpt lat="43.67148" lon="5.73475">
        <ele>272.09</ele>
        <time>2016-12-02T12:00:44Z</time>
      </trkpt>
      <trkpt lat="43.67168" lon="5.73469">
        <ele>270.6</ele>
        <time>2016-12-02T12:00:52Z</time>
      </trkpt>
      <trkpt lat="43.67186" lon="5.73462">
        <ele>270.27</ele>
        <time>2016-12-02T12:00:59Z</time>
      </trkpt>
      <trkpt lat="43.67202" lon="5.73449">
        <ele>271.49</ele>
        <time>2016-12-02T12:01:06Z</time>
      </trkpt>
      <trkpt lat="43.67215" lon="5.73429">
        <ele>271.56</ele>
        <time>2016-12-02T12:01:13Z</time>
      </trkpt>
      <trkpt lat="43.67227" lon="5.7341">
        <ele>271.69</ele>
        <time>2016-12-02T12:01:20Z</time>
      </trkpt>
      <trkpt lat="43.67241" lon="5.73393">
        <ele>270.54</ele>
        <time>2016-12-02T12:01:27Z</time>
      </trkpt>
      <trkpt lat="43.67255" lon="5.73373">
        <ele>269.96</ele>
        <time>2016-12-02T12:01:35Z</time>
      </trkpt>
      <trkpt lat="43.67267" lon="5.73353">
        <ele>269.76</ele>
        <time>2016-12-02T12:01:42Z</time>
      </trkpt>
      <trkpt lat="43.67279" lon="5.73333">
        <ele>272.01</ele>
        <time>2016-12-02T12:01:49Z</time>
      </trkpt>
      <trkpt lat="43.6729" lon="5.73309">
        <ele>270.59</ele>
        <time>2016-12-02T12:01:56Z</time>
      </trkpt>
      <trkpt lat="43.67303" lon="5.73288">
        <ele>271.39</ele>
        <time>2016-12-02T12:02:03Z</time>
      </trkpt>
      <trkpt lat="43.6732" lon="5.73275">
        <ele>272.2</ele>
        <time>2016-12-02T12:02:10Z</time>
      </trkpt>
      <trkpt lat="43.67338" lon="5.73268">
        <ele>271.35</ele>
        <time>2016-12-02T12:02:17Z</time>
      </trkpt>
      <trkpt lat="43.67356" lon="5.73261">
        <ele>269.88</ele>
        <time>2016-12-02T12:02:28Z</time>
      </trkpt>
      <trkpt lat="43.67374" lon="5.73255">
        <ele>266.66</ele>
        <time>2016-12-02T12:02:35Z</time>
      </trkpt>
      <trkpt lat="43.67392" lon="5.73248">
        <ele>263.77</ele>
        <time>2016-12-02T12:02:42Z</time>
      </trkpt>
      <trkpt lat="43.6741" lon="5.7324">
        <ele>265.73</ele>
        <time>2016-12-02T12:02:49Z</time>
      </trkpt>
      <trkpt lat="43.67431" lon="5.73233">
        <ele>265.25</ele>
        <time>2016-12-02T12:02:55Z</time>
      </trkpt>
      <trkpt lat="43.6745" lon="5.73232">
        <ele>261.38</ele>
        <time>2016-12-02T12:03:04Z</time>
      </trkpt>
      <trkpt lat="43.67466" lon="5.73216">
        <ele>262.51</ele>
        <time>2016-12-02T12:03:10Z</time>
      </trkpt>
      <trkpt lat="43.67483" lon="5.73204">
        <ele>265.1</ele>
        <time>2016-12-02T12:03:17Z</time>
      </trkpt>
      <trkpt lat="43.67504" lon="5.73199">
        <ele>263.89</ele>
        <time>2016-12-02T12:03:25Z</time>
      </trkpt>
      <trkpt lat="43.67522" lon="5.73191">
        <ele>264.61</ele>
        <time>2016-12-02T12:03:32Z</time>
      </trkpt>
      <trkpt lat="43.67539" lon="5.73182">
        <ele>264.3</ele>
        <time>2016-12-02T12:03:39Z</time>
      </trkpt>
      <trkpt lat="43.67557" lon="5.73176">
        <ele>265.65</ele>
        <time>2016-12-02T12:03:45Z</time>
      </trkpt>
      <trkpt lat="43.67576" lon="5.73172">
        <ele>263.16</ele>
        <time>2016-12-02T12:03:52Z</time>
      </trkpt>
      <trkpt lat="43.67593" lon="5.73165">
        <ele>263.48</ele>
        <time>2016-12-02T12:03:59Z</time>
      </trkpt>
      <trkpt lat="43.67612" lon="5.73159">
        <ele>265.86</ele>
        <time>2016-12-02T12:04:07Z</time>
      </trkpt>
      <trkpt lat="43.67632" lon="5.73151">
        <ele>262.01</ele>
        <time>2016-12-02T12:04:15Z</time>
      </trkpt>
      <trkpt lat="43.6765" lon="5.73145">
        <ele>259.6</ele>
        <time>2016-12-02T12:04:22Z</time>
      </trkpt>
      <trkpt lat="43.67667" lon="5.7314">
        <ele>258.59</ele>
        <time>2016-12-02T12:04:29Z</time>
      </trkpt>
      <trkpt lat="43.67686" lon="5.73134">
        <ele>261.17</ele>
        <time>2016-12-02T12:04:36Z</time>
      </trkpt>
      <trkpt lat="43.67695" lon="5.73159">
        <ele>264.32</ele>
        <time>2016-12-02T12:04:45Z</time>
      </trkpt>
      <trkpt lat="43.67695" lon="5.73185">
        <ele>266.87</ele>
        <time>2016-12-02T12:04:53Z</time>
      </trkpt>
      <trkpt lat="43.67708" lon="5.73203">
        <ele>272.07</ele>
        <time>2016-12-02T12:05:05Z</time>
      </trkpt>
      <trkpt lat="43.67725" lon="5.73218">
        <ele>274.52</ele>
        <time>2016-12-02T12:05:18Z</time>
      </trkpt>
      <trkpt lat="43.67741" lon="5.73231">
        <ele>282.2</ele>
        <time>2016-12-02T12:05:30Z</time>
      </trkpt>
      <trkpt lat="43.6776" lon="5.73236">
        <ele>287.34</ele>
        <time>2016-12-02T12:05:41Z</time>
      </trkpt>
      <trkpt lat="43.67778" lon="5.73244">
        <ele>287.32</ele>
        <time>2016-12-02T12:06:02Z</time>
      </trkpt>
      <trkpt lat="43.67795" lon="5.73256">
        <ele>286.09</ele>
        <time>2016-12-02T12:06:17Z</time>
      </trkpt>
      <trkpt lat="43.67814" lon="5.73255">
        <ele>293.05</ele>
        <time>2016-12-02T12:06:30Z</time>
      </trkpt>
      <trkpt lat="43.6783" lon="5.73243">
        <ele>288.93</ele>
        <time>2016-12-02T12:06:43Z</time>
      </trkpt>
      <trkpt lat="43.67848" lon="5.73233">
        <ele>286.01</ele>
        <time>2016-12-02T12:06:56Z</time>
      </trkpt>
      <trkpt lat="43.67866" lon="5.73227">
        <ele>288.5</ele>
        <time>2016-12-02T12:07:03Z</time>
      </trkpt>
      <trkpt lat="43.67886" lon="5.73218">
        <ele>287.87</ele>
        <time>2016-12-02T12:07:11Z</time>
      </trkpt>
      <trkpt lat="43.67906" lon="5.73217">
        <ele>291.2</ele>
        <time>2016-12-02T12:07:19Z</time>
      </trkpt>
      <trkpt lat="43.67925" lon="5.7322">
        <ele>290.3</ele>
        <time>2016-12-02T12:07:26Z</time>
      </trkpt>
      <trkpt lat="43.67946" lon="5.73228">
        <ele>290.94</ele>
        <time>2016-12-02T12:07:33Z</time>
      </trkpt>
      <trkpt lat="43.67964" lon="5.73229">
        <ele>291.61</ele>
        <time>2016-12-02T12:07:42Z</time>
      </trkpt>
      <trkpt lat="43.67983" lon="5.73232">
        <ele>286.4</ele>
        <time>2016-12-02T12:07:50Z</time>
      </trkpt>
      <trkpt lat="43.68003" lon="5.73236">
        <ele>284.71</ele>
        <time>2016-12-02T12:07:56Z</time>
      </trkpt>
      <trkpt lat="43.68024" lon="5.73242">
        <ele>283.33</ele>
        <time>2016-12-02T12:08:05Z</time>
      </trkpt>
      <trkpt lat="43.68043" lon="5.73244">
        <ele>280.24</ele>
        <time>2016-12-02T12:08:12Z</time>
      </trkpt>
      <trkpt lat="43.68064" lon="5.73247">
        <ele>279.45</ele>
        <time>2016-12-02T12:08:20Z</time>
      </trkpt>
      <trkpt lat="43.68084" lon="5.73253">
        <ele>283.59</ele>
        <time>2016-12-02T12:08:28Z</time>
      </trkpt>
      <trkpt lat="43.68103" lon="5.73255">
        <ele>284.58</ele>
        <time>2016-12-02T12:08:34Z</time>
      </trkpt>
      <trkpt lat="43.68123" lon="5.73257">
        <ele>284.84</ele>
        <time>2016-12-02T12:08:42Z</time>
      </trkpt>
      <trkpt lat="43.68143" lon="5.73258">
        <ele>284.58</ele>
        <time>2016-12-02T12:08:48Z</time>
      </trkpt>
      <trkpt lat="43.68161" lon="5.73255">
        <ele>288.27</ele>
        <time>2016-12-02T12:08:57Z</time>
      </trkpt>
      <trkpt lat="43.6818" lon="5.73257">
        <ele>286.19</ele>
        <time>2016-12-02T12:09:05Z</time>
      </trkpt>
      <trkpt lat="43.682" lon="5.73254">
        <ele>290.15</ele>
        <time>2016-12-02T12:09:12Z</time>
      </trkpt>
      <trkpt lat="43.68218" lon="5.73257">
        <ele>294.05</ele>
        <time>2016-12-02T12:09:19Z</time>
      </trkpt>
      <trkpt lat="43.68237" lon="5.73256">
        <ele>296.86</ele>
        <time>2016-12-02T12:09:27Z</time>
      </trkpt>
      <trkpt lat="43.68256" lon="5.73253">
        <ele>299.08</ele>
        <time>2016-12-02T12:09:35Z</time>
      </trkpt>
      <trkpt lat="43.68273" lon="5.73242">
        <ele>300.5</ele>
        <time>2016-12-02T12:09:44Z</time>
      </trkpt>
      <trkpt lat="43.6829" lon="5.73231">
        <ele>303.07</ele>
        <time>2016-12-02T12:09:52Z</time>
      </trkpt>
      <trkpt lat="43.68309" lon="5.73226">
        <ele>305.11</ele>
        <time>2016-12-02T12:10:00Z</time>
      </trkpt>
      <trkpt lat="43.68327" lon="5.73225">
        <ele>302.1</ele>
        <time>2016-12-02T12:10:08Z</time>
      </trkpt>
      <trkpt lat="43.68348" lon="5.73222">
        <ele>301.43</ele>
        <time>2016-12-02T12:10:16Z</time>
      </trkpt>
      <trkpt lat="43.68368" lon="5.7322">
        <ele>305.43</ele>
        <time>2016-12-02T12:10:25Z</time>
      </trkpt>
      <trkpt lat="43.68385" lon="5.73227">
        <ele>302.76</ele>
        <time>2016-12-02T12:10:33Z</time>
      </trkpt>
      <trkpt lat="43.68405" lon="5.73241">
        <ele>308.06</ele>
        <time>2016-12-02T12:10:45Z</time>
      </trkpt>
      <trkpt lat="43.6842" lon="5.73257">
        <ele>307.62</ele>
        <time>2016-12-02T12:10:51Z</time>
      </trkpt>
      <trkpt lat="43.68436" lon="5.73275">
        <ele>310.14</ele>
        <time>2016-12-02T12:10:58Z</time>
      </trkpt>
      <trkpt lat="43.68448" lon="5.73294">
        <ele>310.2</ele>
        <time>2016-12-02T12:11:06Z</time>
      </trkpt>
      <trkpt lat="43.68464" lon="5.73308">
        <ele>312.92</ele>
        <time>2016-12-02T12:11:14Z</time>
      </trkpt>
      <trkpt lat="43.68479" lon="5.73323">
        <ele>315.9</ele>
        <time>2016-12-02T12:11:21Z</time>
      </trkpt>
      <trkpt lat="43.68493" lon="5.73342">
        <ele>314.9</ele>
        <time>2016-12-02T12:11:28Z</time>
      </trkpt>
      <trkpt lat="43.68502" lon="5.73367">
        <ele>313.53</ele>
        <time>2016-12-02T12:11:37Z</time>
      </trkpt>
      <trkpt lat="43.68516" lon="5.73386">
        <ele>309.93</ele>
        <time>2016-12-02T12:11:45Z</time>
      </trkpt>
      <trkpt lat="43.68533" lon="5.73403">
        <ele>309.77</ele>
        <time>2016-12-02T12:11:52Z</time>
      </trkpt>
      <trkpt lat="43.68548" lon="5.73418">
        <ele>309.74</ele>
        <time>2016-12-02T12:11:59Z</time>
      </trkpt>
      <trkpt lat="43.68564" lon="5.73431">
        <ele>311.86</ele>
        <time>2016-12-02T12:12:06Z</time>
      </trkpt>
      <trkpt lat="43.68581" lon="5.73448">
        <ele>311.32</ele>
        <time>2016-12-02T12:12:14Z</time>
      </trkpt>
      <trkpt lat="43.68591" lon="5.7347">
        <ele>311.82</ele>
        <time>2016-12-02T12:12:21Z</time>
      </trkpt>
      <trkpt lat="43.686" lon="5.73495">
        <ele>309.41</ele>
        <time>2016-12-02T12:12:29Z</time>
      </trkpt>
      <trkpt lat="43.68613" lon="5.73515">
        <ele>307.09</ele>
        <time>2016-12-02T12:12:37Z</time>
      </trkpt>
      <trkpt lat="43.68625" lon="5.73533">
        <ele>306.8</ele>
        <time>2016-12-02T12:12:43Z</time>
      </trkpt>
      <trkpt lat="43.68638" lon="5.73553">
        <ele>307.2</ele>
        <time>2016-12-02T12:12:50Z</time>
      </trkpt>
      <trkpt lat="43.68652" lon="5.73573">
        <ele>303.32</ele>
        <time>2016-12-02T12:12:57Z</time>
      </trkpt>
      <trkpt lat="43.68665" lon="5.73596">
        <ele>297.1</ele>
        <time>2016-12-02T12:13:04Z</time>
      </trkpt>
      <trkpt lat="43.68681" lon="5.73612">
        <ele>297.01</ele>
        <time>2016-12-02T12:13:11Z</time>
      </trkpt>
      <trkpt lat="43.687" lon="5.73609">
        <ele>295.33</ele>
        <time>2016-12-02T12:13:18Z</time>
      </trkpt>
      <trkpt lat="43.68719" lon="5.73605">
        <ele>295.84</ele>
        <time>2016-12-02T12:13:25Z</time>
      </trkpt>
      <trkpt lat="43.68739" lon="5.736">
        <ele>297.26</ele>
        <time>2016-12-02T12:13:32Z</time>
      </trkpt>
      <trkpt lat="43.68758" lon="5.73596">
        <ele>298.62</ele>
        <time>2016-12-02T12:13:39Z</time>
      </trkpt>
      <trkpt lat="43.68775" lon="5.73592">
        <ele>297.83</ele>
        <time>2016-12-02T12:13:47Z</time>
      </trkpt>
      <trkpt lat="43.68794" lon="5.73587">
        <ele>299.22</ele>
        <time>2016-12-02T12:13:54Z</time>
      </trkpt>
      <trkpt lat="43.68812" lon="5.73589">
        <ele>300.11</ele>
        <time>2016-12-02T12:14:06Z</time>
      </trkpt>
      <trkpt lat="43.6883" lon="5.73602">
        <ele>296.55</ele>
        <time>2016-12-02T12:14:16Z</time>
      </trkpt>
      <trkpt lat="43.6885" lon="5.736">
        <ele>299.48</ele>
        <time>2016-12-02T12:14:22Z</time>
      </trkpt>
      <trkpt lat="43.68868" lon="5.73591">
        <ele>301.33</ele>
        <time>2016-12-02T12:14:29Z</time>
      </trkpt>
      <trkpt lat="43.68885" lon="5.73581">
        <ele>303.04</ele>
        <time>2016-12-02T12:14:37Z</time>
      </trkpt>
      <trkpt lat="43.68902" lon="5.73563">
        <ele>301.82</ele>
        <time>2016-12-02T12:14:44Z</time>
      </trkpt>
      <trkpt lat="43.6892" lon="5.73554">
        <ele>305.91</ele>
        <time>2016-12-02T12:14:53Z</time>
      </trkpt>
      <trkpt lat="43.68938" lon="5.73545">
        <ele>307.08</ele>
        <time>2016-12-02T12:15:00Z</time>
      </trkpt>
      <trkpt lat="43.68955" lon="5.73538">
        <ele>308.91</ele>
        <time>2016-12-02T12:15:07Z</time>
      </trkpt>
      <trkpt lat="43.68976" lon="5.73531">
        <ele>307.47</ele>
        <time>2016-12-02T12:15:14Z</time>
      </trkpt>
      <trkpt lat="43.68997" lon="5.7352">
        <ele>308.31</ele>
        <time>2016-12-02T12:15:21Z</time>
      </trkpt>
      <trkpt lat="43.69013" lon="5.73509">
        <ele>307.55</ele>
        <time>2016-12-02T12:15:28Z</time>
      </trkpt>
      <trkpt lat="43.69028" lon="5.73492">
        <ele>308.22</ele>
        <time>2016-12-02T12:15:36Z</time>
      </trkpt>
      <trkpt lat="43.69044" lon="5.73479">
        <ele>309.48</ele>
        <time>2016-12-02T12:15:43Z</time>
      </trkpt>
      <trkpt lat="43.69064" lon="5.73475">
        <ele>307.97</ele>
        <time>2016-12-02T12:15:50Z</time>
      </trkpt>
      <trkpt lat="43.6908" lon="5.73486">
        <ele>297.44</ele>
        <time>2016-12-02T12:15:59Z</time>
      </trkpt>
      <trkpt lat="43.69099" lon="5.73491">
        <ele>299.71</ele>
        <time>2016-12-02T12:16:07Z</time>
      </trkpt>
      <trkpt lat="43.69119" lon="5.73494">
        <ele>300.01</ele>
        <time>2016-12-02T12:16:15Z</time>
      </trkpt>
      <trkpt lat="43.69138" lon="5.73498">
        <ele>299.99</ele>
        <time>2016-12-02T12:16:21Z</time>
      </trkpt>
      <trkpt lat="43.69155" lon="5.73506">
        <ele>296.93</ele>
        <time>2016-12-02T12:16:29Z</time>
      </trkpt>
      <trkpt lat="43.69174" lon="5.73518">
        <ele>296.64</ele>
        <time>2016-12-02T12:16:36Z</time>
      </trkpt>
      <trkpt lat="43.69193" lon="5.73527">
        <ele>291.61</ele>
        <time>2016-12-02T12:16:44Z</time>
      </trkpt>
      <trkpt lat="43.69212" lon="5.73536">
        <ele>289.2</ele>
        <time>2016-12-02T12:16:51Z</time>
      </trkpt>
      <trkpt lat="43.69233" lon="5.73542">
        <ele>286.6</ele>
        <time>2016-12-02T12:16:59Z</time>
      </trkpt>
      <trkpt lat="43.69254" lon="5.73541">
        <ele>288.98</ele>
        <time>2016-12-02T12:17:06Z</time>
      </trkpt>
      <trkpt lat="43.69273" lon="5.73544">
        <ele>290.32</ele>
        <time>2016-12-02T12:17:15Z</time>
      </trkpt>
      <trkpt lat="43.69292" lon="5.73547">
        <ele>291.06</ele>
        <time>2016-12-02T12:17:23Z</time>
      </trkpt>
      <trkpt lat="43.6931" lon="5.7355">
        <ele>295.37</ele>
        <time>2016-12-02T12:17:29Z</time>
      </trkpt>
      <trkpt lat="43.6933" lon="5.73554">
        <ele>295.58</ele>
        <time>2016-12-02T12:17:37Z</time>
      </trkpt>
      <trkpt lat="43.69349" lon="5.7355">
        <ele>286</ele>
        <time>2016-12-02T12:17:45Z</time>
      </trkpt>
      <trkpt lat="43.6937" lon="5.73553">
        <ele>281.6</ele>
        <time>2016-12-02T12:17:53Z</time>
      </trkpt>
      <trkpt lat="43.69384" lon="5.73571">
        <ele>279.27</ele>
        <time>2016-12-02T12:18:00Z</time>
      </trkpt>
      <trkpt lat="43.69399" lon="5.73589">
        <ele>277.52</ele>
        <time>2016-12-02T12:18:08Z</time>
      </trkpt>
      <trkpt lat="43.69416" lon="5.73601">
        <ele>271.46</ele>
        <time>2016-12-02T12:18:16Z</time>
      </trkpt>
      <trkpt lat="43.69434" lon="5.73614">
        <ele>274.13</ele>
        <time>2016-12-02T12:18:23Z</time>
      </trkpt>
      <trkpt lat="43.6945" lon="5.7363">
        <ele>272.15</ele>
        <time>2016-12-02T12:18:31Z</time>
      </trkpt>
      <trkpt lat="43.69468" lon="5.7364">
        <ele>270.99</ele>
        <time>2016-12-02T12:18:38Z</time>
      </trkpt>
      <trkpt lat="43.69486" lon="5.73643">
        <ele>267.47</ele>
        <time>2016-12-02T12:18:44Z</time>
      </trkpt>
      <trkpt lat="43.69504" lon="5.73643">
        <ele>260.17</ele>
        <time>2016-12-02T12:18:50Z</time>
      </trkpt>
      <trkpt lat="43.69524" lon="5.73638">
        <ele>259.09</ele>
        <time>2016-12-02T12:18:57Z</time>
      </trkpt>
      <trkpt lat="43.69543" lon="5.73637">
        <ele>258.73</ele>
        <time>2016-12-02T12:19:04Z</time>
      </trkpt>
      <trkpt lat="43.69562" lon="5.73644">
        <ele>257.29</ele>
        <time>2016-12-02T12:19:12Z</time>
      </trkpt>
      <trkpt lat="43.69562" lon="5.73671">
        <ele>257.86</ele>
        <time>2016-12-02T12:19:21Z</time>
      </trkpt>
      <trkpt lat="43.69578" lon="5.73684">
        <ele>255.8</ele>
        <time>2016-12-02T12:19:31Z</time>
      </trkpt>
      <trkpt lat="43.69595" lon="5.73676">
        <ele>255.38</ele>
        <time>2016-12-02T12:19:38Z</time>
      </trkpt>
      <trkpt lat="43.69613" lon="5.73664">
        <ele>256.84</ele>
        <time>2016-12-02T12:19:45Z</time>
      </trkpt>
      <trkpt lat="43.69629" lon="5.73651">
        <ele>256.4</ele>
        <time>2016-12-02T12:19:52Z</time>
      </trkpt>
      <trkpt lat="43.69647" lon="5.73666">
        <ele>255.72</ele>
        <time>2016-12-02T12:20:02Z</time>
      </trkpt>
      <trkpt lat="43.69666" lon="5.73664">
        <ele>258.67</ele>
        <time>2016-12-02T12:20:11Z</time>
      </trkpt>
      <trkpt lat="43.69682" lon="5.73653">
        <ele>259.1</ele>
        <time>2016-12-02T12:20:30Z</time>
      </trkpt>
    </trkseg>
  </trk>
</gpx>